<?xml version="1.0" encoding="UTF-8" standalone="no" ?>
<gpx xmlns="http://www.topografix.com/GPX/1/1" xmlns:xsi="http://www.w3.org/2001/XMLSchema-instance" xsi:schemaLocation="http://www.topografix.com/GPX/1/1 http://www.topografix.com/GPX/1/1/gpx.xsd" version="1.1" creator="VisuGPX - https://www.visugpx.com">
  <metadata>
    <name>83-CD-Les Arcs-l\'Entour des Maures/l\'Argens</name>
    <desc><![CDATA[Départ secteur de la Maurette par le massif de Peyragu,le Défens,etour par les bords de l\'Argens]]></desc>
  </metadata>
  <trk>
    <name><![CDATA[22juin l entour des Maures]]></name>
    <trkseg>
      <trkpt lat="43.4409" lon="6.50446">
        <ele>61.661743</ele>
        <time>2014-06-22T08:45:35Z</time>
      </trkpt>
      <trkpt lat="43.44093" lon="6.50447">
        <ele>57.335815</ele>
        <time>2014-06-22T08:46:04Z</time>
      </trkpt>
      <trkpt lat="43.44092" lon="6.50447">
        <ele>56.855103</ele>
        <time>2014-06-22T08:46:30Z</time>
      </trkpt>
      <trkpt lat="43.44092" lon="6.50447">
        <ele>56.855103</ele>
        <time>2014-06-22T08:46:51Z</time>
      </trkpt>
      <trkpt lat="43.4409" lon="6.50444">
        <ele>56.374512</ele>
        <time>2014-06-22T08:47:31Z</time>
      </trkpt>
      <trkpt lat="43.44095" lon="6.50447">
        <ele>55.413086</ele>
        <time>2014-06-22T08:47:46Z</time>
      </trkpt>
      <trkpt lat="43.44094" lon="6.50449">
        <ele>54.932373</ele>
        <time>2014-06-22T08:48:07Z</time>
      </trkpt>
      <trkpt lat="43.44089" lon="6.50451">
        <ele>55.413086</ele>
        <time>2014-06-22T08:48:32Z</time>
      </trkpt>
      <trkpt lat="43.44084" lon="6.50451">
        <ele>53.009766</ele>
        <time>2014-06-22T08:49:03Z</time>
      </trkpt>
      <trkpt lat="43.44086" lon="6.50449">
        <ele>50.606567</ele>
        <time>2014-06-22T08:49:43Z</time>
      </trkpt>
      <trkpt lat="43.44099" lon="6.5044">
        <ele>50.606567</ele>
        <time>2014-06-22T08:50:00Z</time>
      </trkpt>
      <trkpt lat="43.44104" lon="6.5043">
        <ele>52.529175</ele>
        <time>2014-06-22T08:50:10Z</time>
      </trkpt>
      <trkpt lat="43.44114" lon="6.50419">
        <ele>53.971191</ele>
        <time>2014-06-22T08:50:23Z</time>
      </trkpt>
      <trkpt lat="43.44117" lon="6.50411">
        <ele>55.893799</ele>
        <time>2014-06-22T08:50:38Z</time>
      </trkpt>
      <trkpt lat="43.44118" lon="6.50409">
        <ele>56.374512</ele>
        <time>2014-06-22T08:50:41Z</time>
      </trkpt>
      <trkpt lat="43.44126" lon="6.50398">
        <ele>55.893799</ele>
        <time>2014-06-22T08:51:01Z</time>
      </trkpt>
      <trkpt lat="43.44138" lon="6.50388">
        <ele>54.451782</ele>
        <time>2014-06-22T08:51:24Z</time>
      </trkpt>
      <trkpt lat="43.44148" lon="6.50379">
        <ele>54.451782</ele>
        <time>2014-06-22T08:51:41Z</time>
      </trkpt>
      <trkpt lat="43.44161" lon="6.5037">
        <ele>53.490479</ele>
        <time>2014-06-22T08:51:59Z</time>
      </trkpt>
      <trkpt lat="43.44174" lon="6.50368">
        <ele>50.606567</ele>
        <time>2014-06-22T08:52:14Z</time>
      </trkpt>
      <trkpt lat="43.44179" lon="6.50367">
        <ele>50.125977</ele>
        <time>2014-06-22T08:52:26Z</time>
      </trkpt>
      <trkpt lat="43.44184" lon="6.50364">
        <ele>49.645264</ele>
        <time>2014-06-22T08:52:39Z</time>
      </trkpt>
      <trkpt lat="43.44197" lon="6.50351">
        <ele>49.645264</ele>
        <time>2014-06-22T08:52:57Z</time>
      </trkpt>
      <trkpt lat="43.44201" lon="6.50342">
        <ele>49.164551</ele>
        <time>2014-06-22T08:53:07Z</time>
      </trkpt>
      <trkpt lat="43.44216" lon="6.50339">
        <ele>49.164551</ele>
        <time>2014-06-22T08:53:23Z</time>
      </trkpt>
      <trkpt lat="43.44219" lon="6.5034">
        <ele>50.606567</ele>
        <time>2014-06-22T08:53:48Z</time>
      </trkpt>
      <trkpt lat="43.44222" lon="6.50351">
        <ele>51.567871</ele>
        <time>2014-06-22T08:54:07Z</time>
      </trkpt>
      <trkpt lat="43.44222" lon="6.50352">
        <ele>52.048584</ele>
        <time>2014-06-22T08:54:08Z</time>
      </trkpt>
      <trkpt lat="43.44223" lon="6.50364">
        <ele>53.009766</ele>
        <time>2014-06-22T08:54:22Z</time>
      </trkpt>
      <trkpt lat="43.44222" lon="6.50384">
        <ele>54.932373</ele>
        <time>2014-06-22T08:54:43Z</time>
      </trkpt>
      <trkpt lat="43.44213" lon="6.50396">
        <ele>63.103638</ele>
        <time>2014-06-22T08:55:04Z</time>
      </trkpt>
      <trkpt lat="43.44207" lon="6.50407">
        <ele>64.065063</ele>
        <time>2014-06-22T08:55:25Z</time>
      </trkpt>
      <trkpt lat="43.44205" lon="6.5042">
        <ele>58.297119</ele>
        <time>2014-06-22T08:55:38Z</time>
      </trkpt>
      <trkpt lat="43.44198" lon="6.5044">
        <ele>58.77771</ele>
        <time>2014-06-22T08:55:52Z</time>
      </trkpt>
      <trkpt lat="43.44178" lon="6.50459">
        <ele>63.103638</ele>
        <time>2014-06-22T08:56:16Z</time>
      </trkpt>
      <trkpt lat="43.44167" lon="6.50487">
        <ele>64.545654</ele>
        <time>2014-06-22T08:56:39Z</time>
      </trkpt>
      <trkpt lat="43.44167" lon="6.50496">
        <ele>62.622925</ele>
        <time>2014-06-22T08:56:56Z</time>
      </trkpt>
      <trkpt lat="43.44168" lon="6.50507">
        <ele>62.142334</ele>
        <time>2014-06-22T08:57:09Z</time>
      </trkpt>
      <trkpt lat="43.44176" lon="6.50518">
        <ele>63.584351</ele>
        <time>2014-06-22T08:57:33Z</time>
      </trkpt>
      <trkpt lat="43.44178" lon="6.50528">
        <ele>62.142334</ele>
        <time>2014-06-22T08:57:48Z</time>
      </trkpt>
      <trkpt lat="43.44183" lon="6.50548">
        <ele>63.103638</ele>
        <time>2014-06-22T08:58:07Z</time>
      </trkpt>
      <trkpt lat="43.44197" lon="6.50566">
        <ele>67.910278</ele>
        <time>2014-06-22T08:58:32Z</time>
      </trkpt>
      <trkpt lat="43.44211" lon="6.50566">
        <ele>70.313477</ele>
        <time>2014-06-22T08:58:51Z</time>
      </trkpt>
      <trkpt lat="43.44219" lon="6.50559">
        <ele>72.236206</ele>
        <time>2014-06-22T08:59:04Z</time>
      </trkpt>
      <trkpt lat="43.44223" lon="6.50541">
        <ele>74.639526</ele>
        <time>2014-06-22T08:59:19Z</time>
      </trkpt>
      <trkpt lat="43.44231" lon="6.50529">
        <ele>76.081421</ele>
        <time>2014-06-22T08:59:34Z</time>
      </trkpt>
      <trkpt lat="43.4424" lon="6.50521">
        <ele>77.042847</ele>
        <time>2014-06-22T08:59:47Z</time>
      </trkpt>
      <trkpt lat="43.44255" lon="6.50512">
        <ele>77.042847</ele>
        <time>2014-06-22T09:00:06Z</time>
      </trkpt>
      <trkpt lat="43.4426" lon="6.50504">
        <ele>76.562134</ele>
        <time>2014-06-22T09:00:14Z</time>
      </trkpt>
      <trkpt lat="43.44264" lon="6.50497">
        <ele>76.562134</ele>
        <time>2014-06-22T09:00:26Z</time>
      </trkpt>
      <trkpt lat="43.44265" lon="6.50493">
        <ele>76.562134</ele>
        <time>2014-06-22T09:00:32Z</time>
      </trkpt>
      <trkpt lat="43.44271" lon="6.50491">
        <ele>76.562134</ele>
        <time>2014-06-22T09:00:37Z</time>
      </trkpt>
      <trkpt lat="43.44276" lon="6.50488">
        <ele>76.562134</ele>
        <time>2014-06-22T09:00:43Z</time>
      </trkpt>
      <trkpt lat="43.44284" lon="6.50483">
        <ele>76.081421</ele>
        <time>2014-06-22T09:00:47Z</time>
      </trkpt>
      <trkpt lat="43.443" lon="6.5047">
        <ele>75.60083</ele>
        <time>2014-06-22T09:01:06Z</time>
      </trkpt>
      <trkpt lat="43.44314" lon="6.50464">
        <ele>75.60083</ele>
        <time>2014-06-22T09:01:20Z</time>
      </trkpt>
      <trkpt lat="43.4433" lon="6.50457">
        <ele>77.523438</ele>
        <time>2014-06-22T09:01:37Z</time>
      </trkpt>
      <trkpt lat="43.44342" lon="6.50454">
        <ele>82.330078</ele>
        <time>2014-06-22T09:01:54Z</time>
      </trkpt>
      <trkpt lat="43.44376" lon="6.50453">
        <ele>86.175293</ele>
        <time>2014-06-22T09:02:21Z</time>
      </trkpt>
      <trkpt lat="43.44394" lon="6.50454">
        <ele>86.175293</ele>
        <time>2014-06-22T09:02:45Z</time>
      </trkpt>
      <trkpt lat="43.44417" lon="6.50461">
        <ele>88.098022</ele>
        <time>2014-06-22T09:03:08Z</time>
      </trkpt>
      <trkpt lat="43.44442" lon="6.50475">
        <ele>90.02063</ele>
        <time>2014-06-22T09:03:32Z</time>
      </trkpt>
      <trkpt lat="43.44456" lon="6.50485">
        <ele>90.981934</ele>
        <time>2014-06-22T09:03:56Z</time>
      </trkpt>
      <trkpt lat="43.44481" lon="6.50494">
        <ele>92.42395</ele>
        <time>2014-06-22T09:04:24Z</time>
      </trkpt>
      <trkpt lat="43.44499" lon="6.50496">
        <ele>95.788452</ele>
        <time>2014-06-22T09:04:46Z</time>
      </trkpt>
      <trkpt lat="43.44511" lon="6.50501">
        <ele>97.230469</ele>
        <time>2014-06-22T09:04:59Z</time>
      </trkpt>
      <trkpt lat="43.44527" lon="6.50507">
        <ele>97.711182</ele>
        <time>2014-06-22T09:05:18Z</time>
      </trkpt>
      <trkpt lat="43.44549" lon="6.50509">
        <ele>99.633789</ele>
        <time>2014-06-22T09:05:40Z</time>
      </trkpt>
      <trkpt lat="43.44565" lon="6.50498">
        <ele>101.075684</ele>
        <time>2014-06-22T09:06:01Z</time>
      </trkpt>
      <trkpt lat="43.44574" lon="6.50488">
        <ele>103.479004</ele>
        <time>2014-06-22T09:06:12Z</time>
      </trkpt>
      <trkpt lat="43.44587" lon="6.50468">
        <ele>108.285645</ele>
        <time>2014-06-22T09:06:36Z</time>
      </trkpt>
      <trkpt lat="43.44608" lon="6.50467">
        <ele>108.766235</ele>
        <time>2014-06-22T09:07:01Z</time>
      </trkpt>
      <trkpt lat="43.44638" lon="6.50486">
        <ele>107.805054</ele>
        <time>2014-06-22T09:07:27Z</time>
      </trkpt>
      <trkpt lat="43.44655" lon="6.50492">
        <ele>105.401733</ele>
        <time>2014-06-22T09:07:46Z</time>
      </trkpt>
      <trkpt lat="43.44668" lon="6.505">
        <ele>101.075684</ele>
        <time>2014-06-22T09:08:02Z</time>
      </trkpt>
      <trkpt lat="43.44683" lon="6.50511">
        <ele>102.998291</ele>
        <time>2014-06-22T09:08:20Z</time>
      </trkpt>
      <trkpt lat="43.44691" lon="6.50534">
        <ele>99.633789</ele>
        <time>2014-06-22T09:08:43Z</time>
      </trkpt>
      <trkpt lat="43.44712" lon="6.50557">
        <ele>101.075684</ele>
        <time>2014-06-22T09:09:10Z</time>
      </trkpt>
      <trkpt lat="43.44726" lon="6.50576">
        <ele>102.5177</ele>
        <time>2014-06-22T09:09:38Z</time>
      </trkpt>
      <trkpt lat="43.44744" lon="6.50599">
        <ele>103.959717</ele>
        <time>2014-06-22T09:10:02Z</time>
      </trkpt>
      <trkpt lat="43.44757" lon="6.5062">
        <ele>103.959717</ele>
        <time>2014-06-22T09:10:23Z</time>
      </trkpt>
      <trkpt lat="43.44766" lon="6.50634">
        <ele>104.921021</ele>
        <time>2014-06-22T09:10:37Z</time>
      </trkpt>
      <trkpt lat="43.44775" lon="6.5064">
        <ele>103.479004</ele>
        <time>2014-06-22T09:10:48Z</time>
      </trkpt>
      <trkpt lat="43.44784" lon="6.50654">
        <ele>102.998291</ele>
        <time>2014-06-22T09:11:01Z</time>
      </trkpt>
      <trkpt lat="43.44789" lon="6.50663">
        <ele>102.037109</ele>
        <time>2014-06-22T09:11:09Z</time>
      </trkpt>
      <trkpt lat="43.44794" lon="6.50674">
        <ele>100.114502</ele>
        <time>2014-06-22T09:11:19Z</time>
      </trkpt>
      <trkpt lat="43.44798" lon="6.50682">
        <ele>99.153076</ele>
        <time>2014-06-22T09:11:26Z</time>
      </trkpt>
      <trkpt lat="43.44803" lon="6.50687">
        <ele>100.595093</ele>
        <time>2014-06-22T09:11:31Z</time>
      </trkpt>
      <trkpt lat="43.44807" lon="6.50693">
        <ele>99.633789</ele>
        <time>2014-06-22T09:11:36Z</time>
      </trkpt>
      <trkpt lat="43.44817" lon="6.50717">
        <ele>98.672485</ele>
        <time>2014-06-22T09:11:57Z</time>
      </trkpt>
      <trkpt lat="43.44818" lon="6.50718">
        <ele>98.672485</ele>
        <time>2014-06-22T09:11:58Z</time>
      </trkpt>
      <trkpt lat="43.44824" lon="6.5073">
        <ele>99.153076</ele>
        <time>2014-06-22T09:12:06Z</time>
      </trkpt>
      <trkpt lat="43.44825" lon="6.50748">
        <ele>97.711182</ele>
        <time>2014-06-22T09:12:18Z</time>
      </trkpt>
      <trkpt lat="43.44828" lon="6.50772">
        <ele>95.788452</ele>
        <time>2014-06-22T09:12:35Z</time>
      </trkpt>
      <trkpt lat="43.4483" lon="6.50794">
        <ele>95.788452</ele>
        <time>2014-06-22T09:12:51Z</time>
      </trkpt>
      <trkpt lat="43.44825" lon="6.50813">
        <ele>96.269287</ele>
        <time>2014-06-22T09:13:05Z</time>
      </trkpt>
      <trkpt lat="43.44815" lon="6.50835">
        <ele>97.230469</ele>
        <time>2014-06-22T09:13:21Z</time>
      </trkpt>
      <trkpt lat="43.44814" lon="6.50838">
        <ele>96.749878</ele>
        <time>2014-06-22T09:13:24Z</time>
      </trkpt>
      <trkpt lat="43.44799" lon="6.50866">
        <ele>98.191895</ele>
        <time>2014-06-22T09:13:43Z</time>
      </trkpt>
      <trkpt lat="43.44783" lon="6.50886">
        <ele>100.114502</ele>
        <time>2014-06-22T09:14:03Z</time>
      </trkpt>
      <trkpt lat="43.4477" lon="6.50906">
        <ele>102.037109</ele>
        <time>2014-06-22T09:14:22Z</time>
      </trkpt>
      <trkpt lat="43.44766" lon="6.50922">
        <ele>100.114502</ele>
        <time>2014-06-22T09:14:36Z</time>
      </trkpt>
      <trkpt lat="43.44758" lon="6.50946">
        <ele>97.230469</ele>
        <time>2014-06-22T09:15:00Z</time>
      </trkpt>
      <trkpt lat="43.44746" lon="6.50987">
        <ele>91.462524</ele>
        <time>2014-06-22T09:15:25Z</time>
      </trkpt>
      <trkpt lat="43.44746" lon="6.51004">
        <ele>87.617188</ele>
        <time>2014-06-22T09:15:46Z</time>
      </trkpt>
      <trkpt lat="43.44755" lon="6.51021">
        <ele>85.213989</ele>
        <time>2014-06-22T09:16:12Z</time>
      </trkpt>
      <trkpt lat="43.44743" lon="6.51029">
        <ele>82.330078</ele>
        <time>2014-06-22T09:16:42Z</time>
      </trkpt>
      <trkpt lat="43.44747" lon="6.51032">
        <ele>79.926636</ele>
        <time>2014-06-22T09:17:25Z</time>
      </trkpt>
      <trkpt lat="43.44753" lon="6.51046">
        <ele>77.042847</ele>
        <time>2014-06-22T09:17:40Z</time>
      </trkpt>
      <trkpt lat="43.44755" lon="6.51053">
        <ele>76.081421</ele>
        <time>2014-06-22T09:17:45Z</time>
      </trkpt>
      <trkpt lat="43.44757" lon="6.5106">
        <ele>75.60083</ele>
        <time>2014-06-22T09:17:51Z</time>
      </trkpt>
      <trkpt lat="43.4476" lon="6.51072">
        <ele>76.562134</ele>
        <time>2014-06-22T09:17:59Z</time>
      </trkpt>
      <trkpt lat="43.44765" lon="6.51074">
        <ele>76.562134</ele>
        <time>2014-06-22T09:18:03Z</time>
      </trkpt>
      <trkpt lat="43.44767" lon="6.51079">
        <ele>76.562134</ele>
        <time>2014-06-22T09:18:07Z</time>
      </trkpt>
      <trkpt lat="43.44766" lon="6.51087">
        <ele>75.60083</ele>
        <time>2014-06-22T09:18:11Z</time>
      </trkpt>
      <trkpt lat="43.44768" lon="6.51092">
        <ele>75.120239</ele>
        <time>2014-06-22T09:18:14Z</time>
      </trkpt>
      <trkpt lat="43.44769" lon="6.51096">
        <ele>75.120239</ele>
        <time>2014-06-22T09:18:18Z</time>
      </trkpt>
      <trkpt lat="43.44773" lon="6.511">
        <ele>76.081421</ele>
        <time>2014-06-22T09:18:24Z</time>
      </trkpt>
      <trkpt lat="43.44775" lon="6.51107">
        <ele>76.081421</ele>
        <time>2014-06-22T09:18:28Z</time>
      </trkpt>
      <trkpt lat="43.44784" lon="6.51119">
        <ele>76.081421</ele>
        <time>2014-06-22T09:18:40Z</time>
      </trkpt>
      <trkpt lat="43.44793" lon="6.51125">
        <ele>75.60083</ele>
        <time>2014-06-22T09:18:49Z</time>
      </trkpt>
      <trkpt lat="43.44801" lon="6.51145">
        <ele>76.081421</ele>
        <time>2014-06-22T09:19:06Z</time>
      </trkpt>
      <trkpt lat="43.44803" lon="6.51165">
        <ele>75.60083</ele>
        <time>2014-06-22T09:19:21Z</time>
      </trkpt>
      <trkpt lat="43.4481" lon="6.51177">
        <ele>76.081421</ele>
        <time>2014-06-22T09:19:35Z</time>
      </trkpt>
      <trkpt lat="43.44807" lon="6.5119">
        <ele>76.562134</ele>
        <time>2014-06-22T09:19:49Z</time>
      </trkpt>
      <trkpt lat="43.448" lon="6.5122">
        <ele>74.158813</ele>
        <time>2014-06-22T09:20:16Z</time>
      </trkpt>
      <trkpt lat="43.44786" lon="6.5128">
        <ele>74.639526</ele>
        <time>2014-06-22T09:20:59Z</time>
      </trkpt>
      <trkpt lat="43.44795" lon="6.51324">
        <ele>75.60083</ele>
        <time>2014-06-22T09:21:28Z</time>
      </trkpt>
      <trkpt lat="43.44798" lon="6.51347">
        <ele>75.60083</ele>
        <time>2014-06-22T09:21:49Z</time>
      </trkpt>
      <trkpt lat="43.44774" lon="6.5141">
        <ele>75.120239</ele>
        <time>2014-06-22T09:22:32Z</time>
      </trkpt>
      <trkpt lat="43.44766" lon="6.51461">
        <ele>72.716919</ele>
        <time>2014-06-22T09:23:07Z</time>
      </trkpt>
      <trkpt lat="43.44765" lon="6.5151">
        <ele>75.60083</ele>
        <time>2014-06-22T09:23:42Z</time>
      </trkpt>
      <trkpt lat="43.4476" lon="6.51545">
        <ele>77.042847</ele>
        <time>2014-06-22T09:24:06Z</time>
      </trkpt>
      <trkpt lat="43.44762" lon="6.51596">
        <ele>80.407471</ele>
        <time>2014-06-22T09:24:45Z</time>
      </trkpt>
      <trkpt lat="43.44766" lon="6.51629">
        <ele>77.042847</ele>
        <time>2014-06-22T09:25:11Z</time>
      </trkpt>
      <trkpt lat="43.44766" lon="6.51673">
        <ele>76.562134</ele>
        <time>2014-06-22T09:25:34Z</time>
      </trkpt>
      <trkpt lat="43.44755" lon="6.51723">
        <ele>76.562134</ele>
        <time>2014-06-22T09:26:04Z</time>
      </trkpt>
      <trkpt lat="43.44746" lon="6.51752">
        <ele>76.081421</ele>
        <time>2014-06-22T09:26:34Z</time>
      </trkpt>
      <trkpt lat="43.44737" lon="6.51801">
        <ele>78.965454</ele>
        <time>2014-06-22T09:27:02Z</time>
      </trkpt>
      <trkpt lat="43.44747" lon="6.51833">
        <ele>78.965454</ele>
        <time>2014-06-22T09:27:26Z</time>
      </trkpt>
      <trkpt lat="43.44749" lon="6.51863">
        <ele>78.484741</ele>
        <time>2014-06-22T09:27:52Z</time>
      </trkpt>
      <trkpt lat="43.44746" lon="6.51896">
        <ele>78.004028</ele>
        <time>2014-06-22T09:28:17Z</time>
      </trkpt>
      <trkpt lat="43.44734" lon="6.51939">
        <ele>78.965454</ele>
        <time>2014-06-22T09:28:46Z</time>
      </trkpt>
      <trkpt lat="43.44718" lon="6.51966">
        <ele>81.368774</ele>
        <time>2014-06-22T09:29:09Z</time>
      </trkpt>
      <trkpt lat="43.44709" lon="6.51989">
        <ele>81.849365</ele>
        <time>2014-06-22T09:29:31Z</time>
      </trkpt>
      <trkpt lat="43.4471" lon="6.5199">
        <ele>81.849365</ele>
        <time>2014-06-22T09:29:32Z</time>
      </trkpt>
      <trkpt lat="43.44709" lon="6.5201">
        <ele>78.965454</ele>
        <time>2014-06-22T09:29:53Z</time>
      </trkpt>
      <trkpt lat="43.44702" lon="6.52019">
        <ele>79.446045</ele>
        <time>2014-06-22T09:30:04Z</time>
      </trkpt>
      <trkpt lat="43.44696" lon="6.52027">
        <ele>78.004028</ele>
        <time>2014-06-22T09:30:21Z</time>
      </trkpt>
      <trkpt lat="43.44686" lon="6.52039">
        <ele>77.523438</ele>
        <time>2014-06-22T09:30:41Z</time>
      </trkpt>
      <trkpt lat="43.44678" lon="6.52043">
        <ele>77.523438</ele>
        <time>2014-06-22T09:31:10Z</time>
      </trkpt>
      <trkpt lat="43.44668" lon="6.52056">
        <ele>77.523438</ele>
        <time>2014-06-22T09:31:37Z</time>
      </trkpt>
      <trkpt lat="43.44665" lon="6.52082">
        <ele>78.004028</ele>
        <time>2014-06-22T09:31:57Z</time>
      </trkpt>
      <trkpt lat="43.44665" lon="6.5209">
        <ele>78.484741</ele>
        <time>2014-06-22T09:32:02Z</time>
      </trkpt>
      <trkpt lat="43.44668" lon="6.52101">
        <ele>78.965454</ele>
        <time>2014-06-22T09:32:09Z</time>
      </trkpt>
      <trkpt lat="43.44671" lon="6.52104">
        <ele>78.484741</ele>
        <time>2014-06-22T09:32:12Z</time>
      </trkpt>
      <trkpt lat="43.44682" lon="6.52114">
        <ele>78.484741</ele>
        <time>2014-06-22T09:32:26Z</time>
      </trkpt>
      <trkpt lat="43.44684" lon="6.52115">
        <ele>78.004028</ele>
        <time>2014-06-22T09:32:28Z</time>
      </trkpt>
      <trkpt lat="43.44692" lon="6.52125">
        <ele>77.523438</ele>
        <time>2014-06-22T09:32:38Z</time>
      </trkpt>
      <trkpt lat="43.44696" lon="6.52133">
        <ele>77.042847</ele>
        <time>2014-06-22T09:32:45Z</time>
      </trkpt>
      <trkpt lat="43.4471" lon="6.52155">
        <ele>75.60083</ele>
        <time>2014-06-22T09:33:04Z</time>
      </trkpt>
      <trkpt lat="43.44709" lon="6.52163">
        <ele>75.60083</ele>
        <time>2014-06-22T09:33:10Z</time>
      </trkpt>
      <trkpt lat="43.44717" lon="6.52173">
        <ele>75.60083</ele>
        <time>2014-06-22T09:33:18Z</time>
      </trkpt>
      <trkpt lat="43.44723" lon="6.52178">
        <ele>75.60083</ele>
        <time>2014-06-22T09:33:26Z</time>
      </trkpt>
      <trkpt lat="43.44725" lon="6.52182">
        <ele>75.60083</ele>
        <time>2014-06-22T09:33:30Z</time>
      </trkpt>
      <trkpt lat="43.4473" lon="6.52188">
        <ele>76.081421</ele>
        <time>2014-06-22T09:33:38Z</time>
      </trkpt>
      <trkpt lat="43.44736" lon="6.52191">
        <ele>77.042847</ele>
        <time>2014-06-22T09:33:46Z</time>
      </trkpt>
      <trkpt lat="43.4474" lon="6.52197">
        <ele>77.523438</ele>
        <time>2014-06-22T09:33:53Z</time>
      </trkpt>
      <trkpt lat="43.44745" lon="6.52213">
        <ele>78.965454</ele>
        <time>2014-06-22T09:34:11Z</time>
      </trkpt>
      <trkpt lat="43.44744" lon="6.52217">
        <ele>78.965454</ele>
        <time>2014-06-22T09:34:15Z</time>
      </trkpt>
      <trkpt lat="43.44729" lon="6.52236">
        <ele>79.926636</ele>
        <time>2014-06-22T09:34:31Z</time>
      </trkpt>
      <trkpt lat="43.44718" lon="6.52249">
        <ele>81.368774</ele>
        <time>2014-06-22T09:34:45Z</time>
      </trkpt>
      <trkpt lat="43.44713" lon="6.52264">
        <ele>82.810791</ele>
        <time>2014-06-22T09:34:57Z</time>
      </trkpt>
      <trkpt lat="43.44711" lon="6.52268">
        <ele>83.291382</ele>
        <time>2014-06-22T09:35:00Z</time>
      </trkpt>
      <trkpt lat="43.44708" lon="6.52276">
        <ele>84.733398</ele>
        <time>2014-06-22T09:35:07Z</time>
      </trkpt>
      <trkpt lat="43.44705" lon="6.52284">
        <ele>86.175293</ele>
        <time>2014-06-22T09:35:12Z</time>
      </trkpt>
      <trkpt lat="43.44694" lon="6.52308">
        <ele>90.02063</ele>
        <time>2014-06-22T09:35:28Z</time>
      </trkpt>
      <trkpt lat="43.44687" lon="6.52328">
        <ele>92.904541</ele>
        <time>2014-06-22T09:35:41Z</time>
      </trkpt>
      <trkpt lat="43.4469" lon="6.52332">
        <ele>93.865845</ele>
        <time>2014-06-22T09:35:46Z</time>
      </trkpt>
      <trkpt lat="43.44695" lon="6.52337">
        <ele>95.307739</ele>
        <time>2014-06-22T09:35:52Z</time>
      </trkpt>
      <trkpt lat="43.44697" lon="6.52343">
        <ele>96.749878</ele>
        <time>2014-06-22T09:35:57Z</time>
      </trkpt>
      <trkpt lat="43.44702" lon="6.5235">
        <ele>98.672485</ele>
        <time>2014-06-22T09:36:05Z</time>
      </trkpt>
      <trkpt lat="43.4471" lon="6.52355">
        <ele>100.114502</ele>
        <time>2014-06-22T09:36:13Z</time>
      </trkpt>
      <trkpt lat="43.44722" lon="6.52372">
        <ele>103.959717</ele>
        <time>2014-06-22T09:36:31Z</time>
      </trkpt>
      <trkpt lat="43.44729" lon="6.52386">
        <ele>107.324341</ele>
        <time>2014-06-22T09:36:46Z</time>
      </trkpt>
      <trkpt lat="43.44731" lon="6.52404">
        <ele>111.169556</ele>
        <time>2014-06-22T09:37:02Z</time>
      </trkpt>
      <trkpt lat="43.44732" lon="6.52405">
        <ele>111.169556</ele>
        <time>2014-06-22T09:37:03Z</time>
      </trkpt>
      <trkpt lat="43.44736" lon="6.5241">
        <ele>112.130981</ele>
        <time>2014-06-22T09:37:07Z</time>
      </trkpt>
      <trkpt lat="43.4474" lon="6.52428">
        <ele>116.9375</ele>
        <time>2014-06-22T09:37:27Z</time>
      </trkpt>
      <trkpt lat="43.44742" lon="6.52439">
        <ele>118.860107</ele>
        <time>2014-06-22T09:37:36Z</time>
      </trkpt>
      <trkpt lat="43.44749" lon="6.52478">
        <ele>124.147339</ele>
        <time>2014-06-22T09:37:59Z</time>
      </trkpt>
      <trkpt lat="43.44746" lon="6.52504">
        <ele>127.992554</ele>
        <time>2014-06-22T09:38:17Z</time>
      </trkpt>
      <trkpt lat="43.44751" lon="6.52533">
        <ele>133.760498</ele>
        <time>2014-06-22T09:38:42Z</time>
      </trkpt>
      <trkpt lat="43.44758" lon="6.52538">
        <ele>135.202515</ele>
        <time>2014-06-22T09:38:49Z</time>
      </trkpt>
      <trkpt lat="43.44769" lon="6.5254">
        <ele>135.683105</ele>
        <time>2014-06-22T09:38:54Z</time>
      </trkpt>
      <trkpt lat="43.44781" lon="6.52565">
        <ele>140.970459</ele>
        <time>2014-06-22T09:39:19Z</time>
      </trkpt>
      <trkpt lat="43.44773" lon="6.52582">
        <ele>143.85437</ele>
        <time>2014-06-22T09:39:36Z</time>
      </trkpt>
      <trkpt lat="43.44778" lon="6.52612">
        <ele>145.7771</ele>
        <time>2014-06-22T09:39:56Z</time>
      </trkpt>
      <trkpt lat="43.44784" lon="6.52638">
        <ele>149.622314</ele>
        <time>2014-06-22T09:40:18Z</time>
      </trkpt>
      <trkpt lat="43.448" lon="6.5266">
        <ele>154.428955</ele>
        <time>2014-06-22T09:40:45Z</time>
      </trkpt>
      <trkpt lat="43.44809" lon="6.52672">
        <ele>156.351563</ele>
        <time>2014-06-22T09:40:59Z</time>
      </trkpt>
      <trkpt lat="43.44834" lon="6.52706">
        <ele>160.67749</ele>
        <time>2014-06-22T09:41:27Z</time>
      </trkpt>
      <trkpt lat="43.44844" lon="6.52743">
        <ele>164.522705</ele>
        <time>2014-06-22T09:41:54Z</time>
      </trkpt>
      <trkpt lat="43.44852" lon="6.52783">
        <ele>167.887329</ele>
        <time>2014-06-22T09:42:19Z</time>
      </trkpt>
      <trkpt lat="43.44863" lon="6.5281">
        <ele>170.290649</ele>
        <time>2014-06-22T09:42:42Z</time>
      </trkpt>
      <trkpt lat="43.44873" lon="6.52831">
        <ele>172.213257</ele>
        <time>2014-06-22T09:43:01Z</time>
      </trkpt>
      <trkpt lat="43.44879" lon="6.52856">
        <ele>174.616577</ele>
        <time>2014-06-22T09:43:22Z</time>
      </trkpt>
      <trkpt lat="43.44884" lon="6.52882">
        <ele>176.058594</ele>
        <time>2014-06-22T09:43:41Z</time>
      </trkpt>
      <trkpt lat="43.4489" lon="6.52917">
        <ele>176.058594</ele>
        <time>2014-06-22T09:44:05Z</time>
      </trkpt>
      <trkpt lat="43.44884" lon="6.52939">
        <ele>175.09729</ele>
        <time>2014-06-22T09:44:25Z</time>
      </trkpt>
      <trkpt lat="43.44883" lon="6.52961">
        <ele>174.135864</ele>
        <time>2014-06-22T09:44:42Z</time>
      </trkpt>
      <trkpt lat="43.44883" lon="6.52992">
        <ele>170.290649</ele>
        <time>2014-06-22T09:45:06Z</time>
      </trkpt>
      <trkpt lat="43.44879" lon="6.53017">
        <ele>168.368042</ele>
        <time>2014-06-22T09:45:27Z</time>
      </trkpt>
      <trkpt lat="43.44881" lon="6.5302">
        <ele>166.926025</ele>
        <time>2014-06-22T09:45:39Z</time>
      </trkpt>
      <trkpt lat="43.44884" lon="6.53008">
        <ele>166.445313</ele>
        <time>2014-06-22T09:45:56Z</time>
      </trkpt>
      <trkpt lat="43.44887" lon="6.53003">
        <ele>165.003418</ele>
        <time>2014-06-22T09:46:22Z</time>
      </trkpt>
      <trkpt lat="43.44894" lon="6.52998">
        <ele>164.522705</ele>
        <time>2014-06-22T09:46:41Z</time>
      </trkpt>
      <trkpt lat="43.44899" lon="6.52994">
        <ele>164.042114</ele>
        <time>2014-06-22T09:46:46Z</time>
      </trkpt>
      <trkpt lat="43.44909" lon="6.52981">
        <ele>158.27417</ele>
        <time>2014-06-22T09:47:03Z</time>
      </trkpt>
      <trkpt lat="43.44917" lon="6.52971">
        <ele>154.909546</ele>
        <time>2014-06-22T09:47:16Z</time>
      </trkpt>
      <trkpt lat="43.44927" lon="6.52965">
        <ele>153.467651</ele>
        <time>2014-06-22T09:47:31Z</time>
      </trkpt>
      <trkpt lat="43.4493" lon="6.52963">
        <ele>152.506348</ele>
        <time>2014-06-22T09:47:55Z</time>
      </trkpt>
      <trkpt lat="43.44935" lon="6.52957">
        <ele>152.025757</ele>
        <time>2014-06-22T09:48:13Z</time>
      </trkpt>
      <trkpt lat="43.44931" lon="6.5296">
        <ele>152.986938</ele>
        <time>2014-06-22T09:48:40Z</time>
      </trkpt>
      <trkpt lat="43.44943" lon="6.52952">
        <ele>148.18042</ele>
        <time>2014-06-22T09:49:40Z</time>
      </trkpt>
      <trkpt lat="43.44944" lon="6.52952">
        <ele>145.7771</ele>
        <time>2014-06-22T09:50:04Z</time>
      </trkpt>
      <trkpt lat="43.44944" lon="6.5295">
        <ele>145.7771</ele>
        <time>2014-06-22T09:50:34Z</time>
      </trkpt>
      <trkpt lat="43.44943" lon="6.52951">
        <ele>146.257813</ele>
        <time>2014-06-22T09:51:40Z</time>
      </trkpt>
      <trkpt lat="43.44945" lon="6.52952">
        <ele>146.257813</ele>
        <time>2014-06-22T09:52:20Z</time>
      </trkpt>
      <trkpt lat="43.44956" lon="6.52946">
        <ele>145.296387</ele>
        <time>2014-06-22T09:53:44Z</time>
      </trkpt>
      <trkpt lat="43.44962" lon="6.52943">
        <ele>145.7771</ele>
        <time>2014-06-22T09:53:49Z</time>
      </trkpt>
      <trkpt lat="43.44969" lon="6.52938">
        <ele>146.738403</ele>
        <time>2014-06-22T09:53:56Z</time>
      </trkpt>
      <trkpt lat="43.44983" lon="6.5292">
        <ele>149.622314</ele>
        <time>2014-06-22T09:54:13Z</time>
      </trkpt>
      <trkpt lat="43.44984" lon="6.52917">
        <ele>150.103027</ele>
        <time>2014-06-22T09:54:16Z</time>
      </trkpt>
      <trkpt lat="43.44987" lon="6.52915">
        <ele>150.583618</ele>
        <time>2014-06-22T09:54:18Z</time>
      </trkpt>
      <trkpt lat="43.45001" lon="6.52905">
        <ele>152.986938</ele>
        <time>2014-06-22T09:54:34Z</time>
      </trkpt>
      <trkpt lat="43.45015" lon="6.52888">
        <ele>155.870972</ele>
        <time>2014-06-22T09:54:56Z</time>
      </trkpt>
      <trkpt lat="43.45033" lon="6.52863">
        <ele>158.27417</ele>
        <time>2014-06-22T09:55:21Z</time>
      </trkpt>
      <trkpt lat="43.4505" lon="6.52832">
        <ele>161.638916</ele>
        <time>2014-06-22T09:55:56Z</time>
      </trkpt>
      <trkpt lat="43.45064" lon="6.52808">
        <ele>164.522705</ele>
        <time>2014-06-22T09:56:30Z</time>
      </trkpt>
      <trkpt lat="43.45078" lon="6.52802">
        <ele>166.926025</ele>
        <time>2014-06-22T09:56:57Z</time>
      </trkpt>
      <trkpt lat="43.45101" lon="6.52779">
        <ele>169.810059</ele>
        <time>2014-06-22T09:57:31Z</time>
      </trkpt>
      <trkpt lat="43.45114" lon="6.52751">
        <ele>171.732666</ele>
        <time>2014-06-22T09:57:58Z</time>
      </trkpt>
      <trkpt lat="43.45121" lon="6.52749">
        <ele>171.732666</ele>
        <time>2014-06-22T09:58:04Z</time>
      </trkpt>
      <trkpt lat="43.45141" lon="6.52739">
        <ele>165.964722</ele>
        <time>2014-06-22T09:58:22Z</time>
      </trkpt>
      <trkpt lat="43.45154" lon="6.52736">
        <ele>162.119507</ele>
        <time>2014-06-22T09:58:36Z</time>
      </trkpt>
      <trkpt lat="43.45174" lon="6.52736">
        <ele>158.754761</ele>
        <time>2014-06-22T09:59:03Z</time>
      </trkpt>
      <trkpt lat="43.45185" lon="6.52732">
        <ele>156.832153</ele>
        <time>2014-06-22T09:59:26Z</time>
      </trkpt>
      <trkpt lat="43.45188" lon="6.52731">
        <ele>156.832153</ele>
        <time>2014-06-22T09:59:55Z</time>
      </trkpt>
      <trkpt lat="43.45191" lon="6.52733">
        <ele>156.832153</ele>
        <time>2014-06-22T10:00:24Z</time>
      </trkpt>
      <trkpt lat="43.45197" lon="6.52736">
        <ele>155.870972</ele>
        <time>2014-06-22T10:00:56Z</time>
      </trkpt>
      <trkpt lat="43.45195" lon="6.5274">
        <ele>155.390259</ele>
        <time>2014-06-22T10:01:30Z</time>
      </trkpt>
      <trkpt lat="43.45191" lon="6.52744">
        <ele>155.390259</ele>
        <time>2014-06-22T10:02:03Z</time>
      </trkpt>
      <trkpt lat="43.45188" lon="6.52748">
        <ele>153.467651</ele>
        <time>2014-06-22T10:02:20Z</time>
      </trkpt>
      <trkpt lat="43.45187" lon="6.52753">
        <ele>153.467651</ele>
        <time>2014-06-22T10:02:34Z</time>
      </trkpt>
      <trkpt lat="43.45181" lon="6.5275">
        <ele>153.467651</ele>
        <time>2014-06-22T10:03:22Z</time>
      </trkpt>
      <trkpt lat="43.45177" lon="6.52752">
        <ele>153.467651</ele>
        <time>2014-06-22T10:03:47Z</time>
      </trkpt>
      <trkpt lat="43.45182" lon="6.52742">
        <ele>153.948364</ele>
        <time>2014-06-22T10:04:06Z</time>
      </trkpt>
      <trkpt lat="43.45185" lon="6.52745">
        <ele>155.390259</ele>
        <time>2014-06-22T10:08:05Z</time>
      </trkpt>
      <trkpt lat="43.45183" lon="6.5275">
        <ele>154.909546</ele>
        <time>2014-06-22T10:08:24Z</time>
      </trkpt>
      <trkpt lat="43.45182" lon="6.52742">
        <ele>154.428955</ele>
        <time>2014-06-22T10:11:02Z</time>
      </trkpt>
      <trkpt lat="43.45182" lon="6.52745">
        <ele>154.428955</ele>
        <time>2014-06-22T10:12:00Z</time>
      </trkpt>
      <trkpt lat="43.45169" lon="6.52738">
        <ele>154.428955</ele>
        <time>2014-06-22T10:12:36Z</time>
      </trkpt>
      <trkpt lat="43.45151" lon="6.52741">
        <ele>156.832153</ele>
        <time>2014-06-22T10:12:55Z</time>
      </trkpt>
      <trkpt lat="43.45139" lon="6.52741">
        <ele>156.832153</ele>
        <time>2014-06-22T10:13:15Z</time>
      </trkpt>
      <trkpt lat="43.45124" lon="6.52748">
        <ele>159.235474</ele>
        <time>2014-06-22T10:13:45Z</time>
      </trkpt>
      <trkpt lat="43.45104" lon="6.52765">
        <ele>161.158203</ele>
        <time>2014-06-22T10:14:20Z</time>
      </trkpt>
      <trkpt lat="43.45094" lon="6.52791">
        <ele>161.638916</ele>
        <time>2014-06-22T10:14:45Z</time>
      </trkpt>
      <trkpt lat="43.45091" lon="6.52794">
        <ele>161.638916</ele>
        <time>2014-06-22T10:14:48Z</time>
      </trkpt>
      <trkpt lat="43.45069" lon="6.52804">
        <ele>160.196899</ele>
        <time>2014-06-22T10:15:09Z</time>
      </trkpt>
      <trkpt lat="43.45062" lon="6.52809">
        <ele>159.235474</ele>
        <time>2014-06-22T10:15:15Z</time>
      </trkpt>
      <trkpt lat="43.4505" lon="6.52822">
        <ele>158.754761</ele>
        <time>2014-06-22T10:15:33Z</time>
      </trkpt>
      <trkpt lat="43.45039" lon="6.52844">
        <ele>152.506348</ele>
        <time>2014-06-22T10:15:55Z</time>
      </trkpt>
      <trkpt lat="43.4503" lon="6.52862">
        <ele>148.661011</ele>
        <time>2014-06-22T10:16:12Z</time>
      </trkpt>
      <trkpt lat="43.45019" lon="6.52879">
        <ele>147.699707</ele>
        <time>2014-06-22T10:16:29Z</time>
      </trkpt>
      <trkpt lat="43.45005" lon="6.529">
        <ele>145.296387</ele>
        <time>2014-06-22T10:16:50Z</time>
      </trkpt>
      <trkpt lat="43.44987" lon="6.52917">
        <ele>144.815796</ele>
        <time>2014-06-22T10:17:13Z</time>
      </trkpt>
      <trkpt lat="43.44974" lon="6.5293">
        <ele>146.257813</ele>
        <time>2014-06-22T10:17:30Z</time>
      </trkpt>
      <trkpt lat="43.4497" lon="6.52937">
        <ele>145.296387</ele>
        <time>2014-06-22T10:17:50Z</time>
      </trkpt>
      <trkpt lat="43.44955" lon="6.52944">
        <ele>146.738403</ele>
        <time>2014-06-22T10:18:15Z</time>
      </trkpt>
      <trkpt lat="43.44931" lon="6.52957">
        <ele>149.622314</ele>
        <time>2014-06-22T10:18:39Z</time>
      </trkpt>
      <trkpt lat="43.44914" lon="6.52975">
        <ele>152.986938</ele>
        <time>2014-06-22T10:19:02Z</time>
      </trkpt>
      <trkpt lat="43.44894" lon="6.52998">
        <ele>156.832153</ele>
        <time>2014-06-22T10:19:24Z</time>
      </trkpt>
      <trkpt lat="43.44888" lon="6.53007">
        <ele>154.909546</ele>
        <time>2014-06-22T10:19:44Z</time>
      </trkpt>
      <trkpt lat="43.44873" lon="6.53037">
        <ele>155.870972</ele>
        <time>2014-06-22T10:20:06Z</time>
      </trkpt>
      <trkpt lat="43.44858" lon="6.53054">
        <ele>158.27417</ele>
        <time>2014-06-22T10:20:25Z</time>
      </trkpt>
      <trkpt lat="43.44847" lon="6.53061">
        <ele>158.754761</ele>
        <time>2014-06-22T10:20:39Z</time>
      </trkpt>
      <trkpt lat="43.44844" lon="6.53063">
        <ele>158.754761</ele>
        <time>2014-06-22T10:20:42Z</time>
      </trkpt>
      <trkpt lat="43.4483" lon="6.53079">
        <ele>159.716187</ele>
        <time>2014-06-22T10:21:00Z</time>
      </trkpt>
      <trkpt lat="43.44819" lon="6.53096">
        <ele>162.600098</ele>
        <time>2014-06-22T10:21:17Z</time>
      </trkpt>
      <trkpt lat="43.44808" lon="6.5311">
        <ele>165.484131</ele>
        <time>2014-06-22T10:21:33Z</time>
      </trkpt>
      <trkpt lat="43.44795" lon="6.53128">
        <ele>169.329468</ele>
        <time>2014-06-22T10:21:50Z</time>
      </trkpt>
      <trkpt lat="43.44791" lon="6.53133">
        <ele>170.290649</ele>
        <time>2014-06-22T10:21:53Z</time>
      </trkpt>
      <trkpt lat="43.44791" lon="6.53136">
        <ele>170.771362</ele>
        <time>2014-06-22T10:21:55Z</time>
      </trkpt>
      <trkpt lat="43.44792" lon="6.5316">
        <ele>176.058594</ele>
        <time>2014-06-22T10:22:16Z</time>
      </trkpt>
      <trkpt lat="43.44784" lon="6.5318">
        <ele>179.903809</ele>
        <time>2014-06-22T10:22:30Z</time>
      </trkpt>
      <trkpt lat="43.44783" lon="6.53182">
        <ele>180.865234</ele>
        <time>2014-06-22T10:22:32Z</time>
      </trkpt>
      <trkpt lat="43.44778" lon="6.5319">
        <ele>183.749023</ele>
        <time>2014-06-22T10:22:44Z</time>
      </trkpt>
      <trkpt lat="43.44774" lon="6.53213">
        <ele>188.555786</ele>
        <time>2014-06-22T10:23:00Z</time>
      </trkpt>
      <trkpt lat="43.44773" lon="6.53225">
        <ele>189.516968</ele>
        <time>2014-06-22T10:23:07Z</time>
      </trkpt>
      <trkpt lat="43.44775" lon="6.53228">
        <ele>186.152466</ele>
        <time>2014-06-22T10:23:22Z</time>
      </trkpt>
      <trkpt lat="43.44783" lon="6.5323">
        <ele>177.981201</ele>
        <time>2014-06-22T10:23:42Z</time>
      </trkpt>
      <trkpt lat="43.44789" lon="6.53247">
        <ele>172.69397</ele>
        <time>2014-06-22T10:24:02Z</time>
      </trkpt>
      <trkpt lat="43.44794" lon="6.53265">
        <ele>169.329468</ele>
        <time>2014-06-22T10:24:25Z</time>
      </trkpt>
      <trkpt lat="43.44805" lon="6.53283">
        <ele>168.368042</ele>
        <time>2014-06-22T10:24:47Z</time>
      </trkpt>
      <trkpt lat="43.44814" lon="6.53297">
        <ele>167.887329</ele>
        <time>2014-06-22T10:25:01Z</time>
      </trkpt>
      <trkpt lat="43.44821" lon="6.53316">
        <ele>165.484131</ele>
        <time>2014-06-22T10:25:18Z</time>
      </trkpt>
      <trkpt lat="43.44827" lon="6.53331">
        <ele>162.119507</ele>
        <time>2014-06-22T10:25:35Z</time>
      </trkpt>
      <trkpt lat="43.44836" lon="6.53351">
        <ele>157.793579</ele>
        <time>2014-06-22T10:25:59Z</time>
      </trkpt>
      <trkpt lat="43.44848" lon="6.53366">
        <ele>154.428955</ele>
        <time>2014-06-22T10:26:20Z</time>
      </trkpt>
      <trkpt lat="43.44856" lon="6.53373">
        <ele>152.025757</ele>
        <time>2014-06-22T10:26:32Z</time>
      </trkpt>
      <trkpt lat="43.44864" lon="6.53376">
        <ele>151.064209</ele>
        <time>2014-06-22T10:26:39Z</time>
      </trkpt>
      <trkpt lat="43.44878" lon="6.53378">
        <ele>148.661011</ele>
        <time>2014-06-22T10:26:53Z</time>
      </trkpt>
      <trkpt lat="43.44899" lon="6.53371">
        <ele>146.257813</ele>
        <time>2014-06-22T10:27:14Z</time>
      </trkpt>
      <trkpt lat="43.44924" lon="6.5336">
        <ele>141.45105</ele>
        <time>2014-06-22T10:27:39Z</time>
      </trkpt>
      <trkpt lat="43.44935" lon="6.53349">
        <ele>142.412476</ele>
        <time>2014-06-22T10:27:53Z</time>
      </trkpt>
      <trkpt lat="43.44945" lon="6.53346">
        <ele>140.489868</ele>
        <time>2014-06-22T10:28:06Z</time>
      </trkpt>
      <trkpt lat="43.44958" lon="6.53346">
        <ele>138.086548</ele>
        <time>2014-06-22T10:28:23Z</time>
      </trkpt>
      <trkpt lat="43.44967" lon="6.5335">
        <ele>135.202515</ele>
        <time>2014-06-22T10:28:40Z</time>
      </trkpt>
      <trkpt lat="43.44977" lon="6.53351">
        <ele>133.760498</ele>
        <time>2014-06-22T10:28:55Z</time>
      </trkpt>
      <trkpt lat="43.44988" lon="6.53354">
        <ele>132.799316</ele>
        <time>2014-06-22T10:29:05Z</time>
      </trkpt>
      <trkpt lat="43.45002" lon="6.53355">
        <ele>131.3573</ele>
        <time>2014-06-22T10:29:17Z</time>
      </trkpt>
      <trkpt lat="43.45008" lon="6.5335">
        <ele>130.876709</ele>
        <time>2014-06-22T10:29:24Z</time>
      </trkpt>
      <trkpt lat="43.45035" lon="6.53335">
        <ele>127.992554</ele>
        <time>2014-06-22T10:29:54Z</time>
      </trkpt>
      <trkpt lat="43.45053" lon="6.53353">
        <ele>126.550659</ele>
        <time>2014-06-22T10:30:17Z</time>
      </trkpt>
      <trkpt lat="43.45073" lon="6.53378">
        <ele>126.550659</ele>
        <time>2014-06-22T10:30:42Z</time>
      </trkpt>
      <trkpt lat="43.45075" lon="6.53386">
        <ele>126.550659</ele>
        <time>2014-06-22T10:30:46Z</time>
      </trkpt>
      <trkpt lat="43.45084" lon="6.53405">
        <ele>129.434692</ele>
        <time>2014-06-22T10:31:03Z</time>
      </trkpt>
      <trkpt lat="43.45098" lon="6.53432">
        <ele>131.3573</ele>
        <time>2014-06-22T10:31:29Z</time>
      </trkpt>
      <trkpt lat="43.45109" lon="6.53462">
        <ele>132.799316</ele>
        <time>2014-06-22T10:31:56Z</time>
      </trkpt>
      <trkpt lat="43.45128" lon="6.53468">
        <ele>133.760498</ele>
        <time>2014-06-22T10:32:13Z</time>
      </trkpt>
      <trkpt lat="43.45145" lon="6.53461">
        <ele>135.683105</ele>
        <time>2014-06-22T10:32:37Z</time>
      </trkpt>
      <trkpt lat="43.45162" lon="6.53451">
        <ele>136.644653</ele>
        <time>2014-06-22T10:32:59Z</time>
      </trkpt>
      <trkpt lat="43.45173" lon="6.53441">
        <ele>134.721924</ele>
        <time>2014-06-22T10:33:25Z</time>
      </trkpt>
      <trkpt lat="43.45192" lon="6.53429">
        <ele>132.318604</ele>
        <time>2014-06-22T10:34:05Z</time>
      </trkpt>
      <trkpt lat="43.45208" lon="6.53416">
        <ele>126.550659</ele>
        <time>2014-06-22T10:34:23Z</time>
      </trkpt>
      <trkpt lat="43.45219" lon="6.53408">
        <ele>122.224731</ele>
        <time>2014-06-22T10:34:38Z</time>
      </trkpt>
      <trkpt lat="43.4522" lon="6.53407">
        <ele>121.744141</ele>
        <time>2014-06-22T10:34:39Z</time>
      </trkpt>
      <trkpt lat="43.45232" lon="6.53404">
        <ele>119.821411</ele>
        <time>2014-06-22T10:34:51Z</time>
      </trkpt>
      <trkpt lat="43.4524" lon="6.53401">
        <ele>118.379395</ele>
        <time>2014-06-22T10:35:01Z</time>
      </trkpt>
      <trkpt lat="43.45256" lon="6.53402">
        <ele>113.092285</ele>
        <time>2014-06-22T10:35:22Z</time>
      </trkpt>
      <trkpt lat="43.45271" lon="6.5341">
        <ele>110.208252</ele>
        <time>2014-06-22T10:35:40Z</time>
      </trkpt>
      <trkpt lat="43.45283" lon="6.5342">
        <ele>108.766235</ele>
        <time>2014-06-22T10:36:00Z</time>
      </trkpt>
      <trkpt lat="43.45296" lon="6.53435">
        <ele>107.324341</ele>
        <time>2014-06-22T10:36:23Z</time>
      </trkpt>
      <trkpt lat="43.45312" lon="6.5345">
        <ele>105.401733</ele>
        <time>2014-06-22T10:36:47Z</time>
      </trkpt>
      <trkpt lat="43.45328" lon="6.53457">
        <ele>103.959717</ele>
        <time>2014-06-22T10:37:06Z</time>
      </trkpt>
      <trkpt lat="43.45346" lon="6.53456">
        <ele>101.075684</ele>
        <time>2014-06-22T10:37:22Z</time>
      </trkpt>
      <trkpt lat="43.45354" lon="6.53459">
        <ele>99.633789</ele>
        <time>2014-06-22T10:37:37Z</time>
      </trkpt>
      <trkpt lat="43.45365" lon="6.53466">
        <ele>95.307739</ele>
        <time>2014-06-22T10:37:55Z</time>
      </trkpt>
      <trkpt lat="43.45374" lon="6.5347">
        <ele>93.865845</ele>
        <time>2014-06-22T10:38:06Z</time>
      </trkpt>
      <trkpt lat="43.45386" lon="6.53483">
        <ele>88.578735</ele>
        <time>2014-06-22T10:38:27Z</time>
      </trkpt>
      <trkpt lat="43.4539" lon="6.53503">
        <ele>85.213989</ele>
        <time>2014-06-22T10:38:49Z</time>
      </trkpt>
      <trkpt lat="43.45403" lon="6.53517">
        <ele>81.849365</ele>
        <time>2014-06-22T10:39:13Z</time>
      </trkpt>
      <trkpt lat="43.45425" lon="6.53516">
        <ele>79.446045</ele>
        <time>2014-06-22T10:39:34Z</time>
      </trkpt>
      <trkpt lat="43.45464" lon="6.53496">
        <ele>76.081421</ele>
        <time>2014-06-22T10:40:06Z</time>
      </trkpt>
      <trkpt lat="43.4547" lon="6.53493">
        <ele>74.639526</ele>
        <time>2014-06-22T10:40:18Z</time>
      </trkpt>
      <trkpt lat="43.45481" lon="6.53488">
        <ele>73.197632</ele>
        <time>2014-06-22T10:40:36Z</time>
      </trkpt>
      <trkpt lat="43.45484" lon="6.53488">
        <ele>73.197632</ele>
        <time>2014-06-22T10:40:38Z</time>
      </trkpt>
      <trkpt lat="43.45498" lon="6.5349">
        <ele>70.794189</ele>
        <time>2014-06-22T10:41:01Z</time>
      </trkpt>
      <trkpt lat="43.45515" lon="6.53493">
        <ele>68.390869</ele>
        <time>2014-06-22T10:41:23Z</time>
      </trkpt>
      <trkpt lat="43.45531" lon="6.53503">
        <ele>64.065063</ele>
        <time>2014-06-22T10:41:50Z</time>
      </trkpt>
      <trkpt lat="43.45548" lon="6.53519">
        <ele>59.258423</ele>
        <time>2014-06-22T10:42:20Z</time>
      </trkpt>
      <trkpt lat="43.45555" lon="6.53527">
        <ele>56.855103</ele>
        <time>2014-06-22T10:42:33Z</time>
      </trkpt>
      <trkpt lat="43.45558" lon="6.53553">
        <ele>53.490479</ele>
        <time>2014-06-22T10:42:54Z</time>
      </trkpt>
      <trkpt lat="43.45553" lon="6.53568">
        <ele>53.009766</ele>
        <time>2014-06-22T10:43:08Z</time>
      </trkpt>
      <trkpt lat="43.45542" lon="6.5359">
        <ele>48.203369</ele>
        <time>2014-06-22T10:43:31Z</time>
      </trkpt>
      <trkpt lat="43.45526" lon="6.53617">
        <ele>43.396606</ele>
        <time>2014-06-22T10:43:57Z</time>
      </trkpt>
      <trkpt lat="43.45514" lon="6.53633">
        <ele>41.954712</ele>
        <time>2014-06-22T10:44:13Z</time>
      </trkpt>
      <trkpt lat="43.45513" lon="6.53637">
        <ele>41.954712</ele>
        <time>2014-06-22T10:44:18Z</time>
      </trkpt>
      <trkpt lat="43.45512" lon="6.53641">
        <ele>41.954712</ele>
        <time>2014-06-22T10:44:22Z</time>
      </trkpt>
      <trkpt lat="43.45513" lon="6.5367">
        <ele>42.916016</ele>
        <time>2014-06-22T10:44:39Z</time>
      </trkpt>
      <trkpt lat="43.45513" lon="6.53688">
        <ele>43.877319</ele>
        <time>2014-06-22T10:44:51Z</time>
      </trkpt>
      <trkpt lat="43.45513" lon="6.53696">
        <ele>44.838623</ele>
        <time>2014-06-22T10:44:57Z</time>
      </trkpt>
      <trkpt lat="43.45517" lon="6.53725">
        <ele>48.68396</ele>
        <time>2014-06-22T10:45:18Z</time>
      </trkpt>
      <trkpt lat="43.45517" lon="6.53728">
        <ele>49.164551</ele>
        <time>2014-06-22T10:45:20Z</time>
      </trkpt>
      <trkpt lat="43.4552" lon="6.53741">
        <ele>51.087158</ele>
        <time>2014-06-22T10:45:31Z</time>
      </trkpt>
      <trkpt lat="43.4552" lon="6.53745">
        <ele>51.087158</ele>
        <time>2014-06-22T10:45:33Z</time>
      </trkpt>
      <trkpt lat="43.45517" lon="6.53753">
        <ele>52.529175</ele>
        <time>2014-06-22T10:45:40Z</time>
      </trkpt>
      <trkpt lat="43.45518" lon="6.53794">
        <ele>57.816528</ele>
        <time>2014-06-22T10:46:09Z</time>
      </trkpt>
      <trkpt lat="43.45507" lon="6.53808">
        <ele>61.18103</ele>
        <time>2014-06-22T10:46:27Z</time>
      </trkpt>
      <trkpt lat="43.45506" lon="6.53809">
        <ele>61.661743</ele>
        <time>2014-06-22T10:46:29Z</time>
      </trkpt>
      <trkpt lat="43.45504" lon="6.53821">
        <ele>62.142334</ele>
        <time>2014-06-22T10:46:45Z</time>
      </trkpt>
      <trkpt lat="43.45493" lon="6.5384">
        <ele>61.18103</ele>
        <time>2014-06-22T10:46:58Z</time>
      </trkpt>
      <trkpt lat="43.45489" lon="6.53844">
        <ele>62.142334</ele>
        <time>2014-06-22T10:47:02Z</time>
      </trkpt>
      <trkpt lat="43.45477" lon="6.53856">
        <ele>60.219727</ele>
        <time>2014-06-22T10:47:16Z</time>
      </trkpt>
      <trkpt lat="43.45475" lon="6.5386">
        <ele>59.739136</ele>
        <time>2014-06-22T10:47:19Z</time>
      </trkpt>
      <trkpt lat="43.45474" lon="6.53863">
        <ele>59.739136</ele>
        <time>2014-06-22T10:47:21Z</time>
      </trkpt>
      <trkpt lat="43.45471" lon="6.53867">
        <ele>58.77771</ele>
        <time>2014-06-22T10:47:24Z</time>
      </trkpt>
      <trkpt lat="43.45469" lon="6.53869">
        <ele>58.297119</ele>
        <time>2014-06-22T10:47:26Z</time>
      </trkpt>
      <trkpt lat="43.45452" lon="6.53889">
        <ele>56.855103</ele>
        <time>2014-06-22T10:47:43Z</time>
      </trkpt>
      <trkpt lat="43.45451" lon="6.5389">
        <ele>56.855103</ele>
        <time>2014-06-22T10:47:45Z</time>
      </trkpt>
      <trkpt lat="43.45448" lon="6.53896">
        <ele>56.374512</ele>
        <time>2014-06-22T10:47:50Z</time>
      </trkpt>
      <trkpt lat="43.45434" lon="6.53907">
        <ele>51.087158</ele>
        <time>2014-06-22T10:48:02Z</time>
      </trkpt>
      <trkpt lat="43.45426" lon="6.53922">
        <ele>49.645264</ele>
        <time>2014-06-22T10:48:15Z</time>
      </trkpt>
      <trkpt lat="43.45415" lon="6.53951">
        <ele>49.645264</ele>
        <time>2014-06-22T10:48:33Z</time>
      </trkpt>
      <trkpt lat="43.45412" lon="6.53976">
        <ele>48.68396</ele>
        <time>2014-06-22T10:48:53Z</time>
      </trkpt>
      <trkpt lat="43.45411" lon="6.53978">
        <ele>48.68396</ele>
        <time>2014-06-22T10:48:55Z</time>
      </trkpt>
      <trkpt lat="43.45411" lon="6.53982">
        <ele>48.203369</ele>
        <time>2014-06-22T10:48:58Z</time>
      </trkpt>
      <trkpt lat="43.45411" lon="6.53997">
        <ele>44.358032</ele>
        <time>2014-06-22T10:49:09Z</time>
      </trkpt>
      <trkpt lat="43.45419" lon="6.54021">
        <ele>40.512817</ele>
        <time>2014-06-22T10:49:28Z</time>
      </trkpt>
      <trkpt lat="43.45428" lon="6.54048">
        <ele>38.109375</ele>
        <time>2014-06-22T10:49:45Z</time>
      </trkpt>
      <trkpt lat="43.45427" lon="6.54051">
        <ele>38.109375</ele>
        <time>2014-06-22T10:49:47Z</time>
      </trkpt>
      <trkpt lat="43.45428" lon="6.54078">
        <ele>38.109375</ele>
        <time>2014-06-22T10:50:04Z</time>
      </trkpt>
      <trkpt lat="43.45426" lon="6.54102">
        <ele>39.070679</ele>
        <time>2014-06-22T10:50:19Z</time>
      </trkpt>
      <trkpt lat="43.45409" lon="6.5413">
        <ele>39.070679</ele>
        <time>2014-06-22T10:50:37Z</time>
      </trkpt>
      <trkpt lat="43.45406" lon="6.54139">
        <ele>39.55127</ele>
        <time>2014-06-22T10:50:44Z</time>
      </trkpt>
      <trkpt lat="43.45398" lon="6.54164">
        <ele>42.435425</ele>
        <time>2014-06-22T10:51:00Z</time>
      </trkpt>
      <trkpt lat="43.45384" lon="6.54179">
        <ele>44.358032</ele>
        <time>2014-06-22T10:51:16Z</time>
      </trkpt>
      <trkpt lat="43.45378" lon="6.54192">
        <ele>46.28064</ele>
        <time>2014-06-22T10:51:29Z</time>
      </trkpt>
      <trkpt lat="43.45368" lon="6.5421">
        <ele>44.838623</ele>
        <time>2014-06-22T10:51:48Z</time>
      </trkpt>
      <trkpt lat="43.45366" lon="6.54235">
        <ele>39.55127</ele>
        <time>2014-06-22T10:52:12Z</time>
      </trkpt>
      <trkpt lat="43.45366" lon="6.54244">
        <ele>40.032104</ele>
        <time>2014-06-22T10:52:18Z</time>
      </trkpt>
      <trkpt lat="43.45368" lon="6.54264">
        <ele>38.109375</ele>
        <time>2014-06-22T10:52:34Z</time>
      </trkpt>
      <trkpt lat="43.4537" lon="6.54267">
        <ele>37.628662</ele>
        <time>2014-06-22T10:52:58Z</time>
      </trkpt>
      <trkpt lat="43.4536" lon="6.54285">
        <ele>36.186768</ele>
        <time>2014-06-22T10:53:33Z</time>
      </trkpt>
      <trkpt lat="43.45369" lon="6.54325">
        <ele>34.744873</ele>
        <time>2014-06-22T10:53:57Z</time>
      </trkpt>
      <trkpt lat="43.45376" lon="6.54358">
        <ele>32.822266</ele>
        <time>2014-06-22T10:54:17Z</time>
      </trkpt>
      <trkpt lat="43.45384" lon="6.54387">
        <ele>30.418823</ele>
        <time>2014-06-22T10:54:36Z</time>
      </trkpt>
      <trkpt lat="43.45393" lon="6.54406">
        <ele>28.015503</ele>
        <time>2014-06-22T10:54:55Z</time>
      </trkpt>
      <trkpt lat="43.4541" lon="6.54426">
        <ele>25.131714</ele>
        <time>2014-06-22T10:55:15Z</time>
      </trkpt>
      <trkpt lat="43.45432" lon="6.54463">
        <ele>20.324951</ele>
        <time>2014-06-22T10:55:41Z</time>
      </trkpt>
      <trkpt lat="43.45424" lon="6.54471">
        <ele>19.84436</ele>
        <time>2014-06-22T10:55:55Z</time>
      </trkpt>
      <trkpt lat="43.45428" lon="6.5448">
        <ele>18.883057</ele>
        <time>2014-06-22T10:56:17Z</time>
      </trkpt>
      <trkpt lat="43.45442" lon="6.54518">
        <ele>15.999023</ele>
        <time>2014-06-22T10:56:39Z</time>
      </trkpt>
      <trkpt lat="43.45442" lon="6.54538">
        <ele>14.557007</ele>
        <time>2014-06-22T10:56:52Z</time>
      </trkpt>
      <trkpt lat="43.45443" lon="6.54574">
        <ele>13.595825</ele>
        <time>2014-06-22T10:57:14Z</time>
      </trkpt>
      <trkpt lat="43.45442" lon="6.54577">
        <ele>14.076416</ele>
        <time>2014-06-22T10:57:16Z</time>
      </trkpt>
      <trkpt lat="43.45443" lon="6.54591">
        <ele>13.595825</ele>
        <time>2014-06-22T10:57:24Z</time>
      </trkpt>
      <trkpt lat="43.45442" lon="6.5463">
        <ele>15.03772</ele>
        <time>2014-06-22T10:57:45Z</time>
      </trkpt>
      <trkpt lat="43.45442" lon="6.54636">
        <ele>15.999023</ele>
        <time>2014-06-22T10:57:49Z</time>
      </trkpt>
      <trkpt lat="43.45442" lon="6.54651">
        <ele>16.479736</ele>
        <time>2014-06-22T10:57:59Z</time>
      </trkpt>
      <trkpt lat="43.45435" lon="6.54654">
        <ele>16.960449</ele>
        <time>2014-06-22T10:58:05Z</time>
      </trkpt>
      <trkpt lat="43.45414" lon="6.54657">
        <ele>16.960449</ele>
        <time>2014-06-22T10:58:21Z</time>
      </trkpt>
      <trkpt lat="43.45402" lon="6.5466">
        <ele>17.441162</ele>
        <time>2014-06-22T10:58:37Z</time>
      </trkpt>
      <trkpt lat="43.45393" lon="6.54655">
        <ele>18.883057</ele>
        <time>2014-06-22T11:03:58Z</time>
      </trkpt>
      <trkpt lat="43.45388" lon="6.5465">
        <ele>19.84436</ele>
        <time>2014-06-22T11:04:27Z</time>
      </trkpt>
      <trkpt lat="43.45376" lon="6.54647">
        <ele>21.766968</ele>
        <time>2014-06-22T11:04:41Z</time>
      </trkpt>
      <trkpt lat="43.45358" lon="6.54641">
        <ele>23.689575</ele>
        <time>2014-06-22T11:05:00Z</time>
      </trkpt>
      <trkpt lat="43.45353" lon="6.54636">
        <ele>23.208984</ele>
        <time>2014-06-22T11:05:31Z</time>
      </trkpt>
      <trkpt lat="43.45324" lon="6.54626">
        <ele>22.728271</ele>
        <time>2014-06-22T11:06:07Z</time>
      </trkpt>
      <trkpt lat="43.45309" lon="6.54615">
        <ele>21.766968</ele>
        <time>2014-06-22T11:06:35Z</time>
      </trkpt>
      <trkpt lat="43.453" lon="6.54613">
        <ele>23.689575</ele>
        <time>2014-06-22T11:06:55Z</time>
      </trkpt>
      <trkpt lat="43.45283" lon="6.54605">
        <ele>26.573608</ele>
        <time>2014-06-22T11:07:13Z</time>
      </trkpt>
      <trkpt lat="43.45274" lon="6.546">
        <ele>28.976929</ele>
        <time>2014-06-22T11:07:29Z</time>
      </trkpt>
      <trkpt lat="43.45247" lon="6.54599">
        <ele>32.341553</ele>
        <time>2014-06-22T11:07:58Z</time>
      </trkpt>
      <trkpt lat="43.45237" lon="6.54627">
        <ele>37.148071</ele>
        <time>2014-06-22T11:08:29Z</time>
      </trkpt>
      <trkpt lat="43.45222" lon="6.54638">
        <ele>41.473999</ele>
        <time>2014-06-22T11:09:01Z</time>
      </trkpt>
      <trkpt lat="43.45203" lon="6.54659">
        <ele>45.319214</ele>
        <time>2014-06-22T11:09:29Z</time>
      </trkpt>
      <trkpt lat="43.45184" lon="6.54673">
        <ele>49.645264</ele>
        <time>2014-06-22T11:09:58Z</time>
      </trkpt>
      <trkpt lat="43.45158" lon="6.54692">
        <ele>54.451782</ele>
        <time>2014-06-22T11:10:28Z</time>
      </trkpt>
      <trkpt lat="43.4515" lon="6.54716">
        <ele>59.739136</ele>
        <time>2014-06-22T11:10:55Z</time>
      </trkpt>
      <trkpt lat="43.45134" lon="6.54722">
        <ele>64.545654</ele>
        <time>2014-06-22T11:11:16Z</time>
      </trkpt>
      <trkpt lat="43.45116" lon="6.54732">
        <ele>70.313477</ele>
        <time>2014-06-22T11:11:42Z</time>
      </trkpt>
      <trkpt lat="43.45101" lon="6.54746">
        <ele>75.60083</ele>
        <time>2014-06-22T11:12:09Z</time>
      </trkpt>
      <trkpt lat="43.45095" lon="6.54755">
        <ele>77.523438</ele>
        <time>2014-06-22T11:12:33Z</time>
      </trkpt>
      <trkpt lat="43.45108" lon="6.5475">
        <ele>76.562134</ele>
        <time>2014-06-22T11:12:57Z</time>
      </trkpt>
      <trkpt lat="43.45112" lon="6.54745">
        <ele>76.562134</ele>
        <time>2014-06-22T11:13:55Z</time>
      </trkpt>
      <trkpt lat="43.45132" lon="6.54731">
        <ele>75.60083</ele>
        <time>2014-06-22T11:14:17Z</time>
      </trkpt>
      <trkpt lat="43.45153" lon="6.54715">
        <ele>80.888184</ele>
        <time>2014-06-22T11:14:38Z</time>
      </trkpt>
      <trkpt lat="43.45159" lon="6.5471">
        <ele>77.042847</ele>
        <time>2014-06-22T11:14:54Z</time>
      </trkpt>
      <trkpt lat="43.45167" lon="6.54702">
        <ele>68.871582</ele>
        <time>2014-06-22T11:15:16Z</time>
      </trkpt>
      <trkpt lat="43.45173" lon="6.54681">
        <ele>61.661743</ele>
        <time>2014-06-22T11:15:35Z</time>
      </trkpt>
      <trkpt lat="43.45182" lon="6.54675">
        <ele>54.932373</ele>
        <time>2014-06-22T11:15:53Z</time>
      </trkpt>
      <trkpt lat="43.45196" lon="6.54664">
        <ele>46.76123</ele>
        <time>2014-06-22T11:16:14Z</time>
      </trkpt>
      <trkpt lat="43.45206" lon="6.54649">
        <ele>40.512817</ele>
        <time>2014-06-22T11:16:35Z</time>
      </trkpt>
      <trkpt lat="43.45221" lon="6.54633">
        <ele>36.66748</ele>
        <time>2014-06-22T11:16:57Z</time>
      </trkpt>
      <trkpt lat="43.45222" lon="6.54632">
        <ele>36.186768</ele>
        <time>2014-06-22T11:17:00Z</time>
      </trkpt>
      <trkpt lat="43.45224" lon="6.54638">
        <ele>32.822266</ele>
        <time>2014-06-22T11:17:09Z</time>
      </trkpt>
      <trkpt lat="43.45218" lon="6.54657">
        <ele>29.45752</ele>
        <time>2014-06-22T11:17:26Z</time>
      </trkpt>
      <trkpt lat="43.45212" lon="6.54687">
        <ele>33.302856</ele>
        <time>2014-06-22T11:17:49Z</time>
      </trkpt>
      <trkpt lat="43.45207" lon="6.54718">
        <ele>33.783447</ele>
        <time>2014-06-22T11:18:12Z</time>
      </trkpt>
      <trkpt lat="43.45207" lon="6.54726">
        <ele>35.225464</ele>
        <time>2014-06-22T11:18:17Z</time>
      </trkpt>
      <trkpt lat="43.45204" lon="6.54752">
        <ele>36.66748</ele>
        <time>2014-06-22T11:18:35Z</time>
      </trkpt>
      <trkpt lat="43.452" lon="6.54789">
        <ele>37.148071</ele>
        <time>2014-06-22T11:19:00Z</time>
      </trkpt>
      <trkpt lat="43.452" lon="6.54824">
        <ele>35.225464</ele>
        <time>2014-06-22T11:19:29Z</time>
      </trkpt>
      <trkpt lat="43.45197" lon="6.54856">
        <ele>36.66748</ele>
        <time>2014-06-22T11:19:59Z</time>
      </trkpt>
      <trkpt lat="43.45196" lon="6.54895">
        <ele>35.225464</ele>
        <time>2014-06-22T11:20:28Z</time>
      </trkpt>
      <trkpt lat="43.45194" lon="6.54922">
        <ele>33.783447</ele>
        <time>2014-06-22T11:20:50Z</time>
      </trkpt>
      <trkpt lat="43.45194" lon="6.54928">
        <ele>33.302856</ele>
        <time>2014-06-22T11:21:06Z</time>
      </trkpt>
      <trkpt lat="43.45194" lon="6.54931">
        <ele>34.26416</ele>
        <time>2014-06-22T11:21:26Z</time>
      </trkpt>
      <trkpt lat="43.45192" lon="6.54961">
        <ele>32.341553</ele>
        <time>2014-06-22T11:21:50Z</time>
      </trkpt>
      <trkpt lat="43.45196" lon="6.55002">
        <ele>30.899536</ele>
        <time>2014-06-22T11:22:19Z</time>
      </trkpt>
      <trkpt lat="43.45201" lon="6.55042">
        <ele>30.418823</ele>
        <time>2014-06-22T11:22:45Z</time>
      </trkpt>
      <trkpt lat="43.45199" lon="6.55076">
        <ele>29.45752</ele>
        <time>2014-06-22T11:23:09Z</time>
      </trkpt>
      <trkpt lat="43.45206" lon="6.55102">
        <ele>28.015503</ele>
        <time>2014-06-22T11:23:30Z</time>
      </trkpt>
      <trkpt lat="43.45205" lon="6.55107">
        <ele>27.534912</ele>
        <time>2014-06-22T11:23:34Z</time>
      </trkpt>
      <trkpt lat="43.45195" lon="6.55128">
        <ele>28.496216</ele>
        <time>2014-06-22T11:23:53Z</time>
      </trkpt>
      <trkpt lat="43.45189" lon="6.55159">
        <ele>31.380127</ele>
        <time>2014-06-22T11:24:16Z</time>
      </trkpt>
      <trkpt lat="43.45191" lon="6.55205">
        <ele>34.26416</ele>
        <time>2014-06-22T11:24:46Z</time>
      </trkpt>
      <trkpt lat="43.45194" lon="6.55236">
        <ele>29.93811</ele>
        <time>2014-06-22T11:25:07Z</time>
      </trkpt>
      <trkpt lat="43.45204" lon="6.55269">
        <ele>23.208984</ele>
        <time>2014-06-22T11:25:31Z</time>
      </trkpt>
      <trkpt lat="43.45215" lon="6.55314">
        <ele>21.766968</ele>
        <time>2014-06-22T11:26:02Z</time>
      </trkpt>
      <trkpt lat="43.4521" lon="6.55342">
        <ele>25.131714</ele>
        <time>2014-06-22T11:26:23Z</time>
      </trkpt>
      <trkpt lat="43.45208" lon="6.55375">
        <ele>29.45752</ele>
        <time>2014-06-22T11:26:43Z</time>
      </trkpt>
      <trkpt lat="43.45209" lon="6.55381">
        <ele>29.45752</ele>
        <time>2014-06-22T11:26:47Z</time>
      </trkpt>
      <trkpt lat="43.4521" lon="6.55385">
        <ele>29.93811</ele>
        <time>2014-06-22T11:26:50Z</time>
      </trkpt>
      <trkpt lat="43.45209" lon="6.55397">
        <ele>30.899536</ele>
        <time>2014-06-22T11:26:58Z</time>
      </trkpt>
      <trkpt lat="43.45197" lon="6.55434">
        <ele>24.170288</ele>
        <time>2014-06-22T11:27:23Z</time>
      </trkpt>
      <trkpt lat="43.45205" lon="6.55472">
        <ele>20.805664</ele>
        <time>2014-06-22T11:27:49Z</time>
      </trkpt>
      <trkpt lat="43.45216" lon="6.55506">
        <ele>19.84436</ele>
        <time>2014-06-22T11:28:12Z</time>
      </trkpt>
      <trkpt lat="43.45217" lon="6.55522">
        <ele>19.36377</ele>
        <time>2014-06-22T11:28:31Z</time>
      </trkpt>
      <trkpt lat="43.45216" lon="6.55534">
        <ele>17.441162</ele>
        <time>2014-06-22T11:28:53Z</time>
      </trkpt>
      <trkpt lat="43.45212" lon="6.5555">
        <ele>17.441162</ele>
        <time>2014-06-22T11:29:14Z</time>
      </trkpt>
      <trkpt lat="43.45212" lon="6.55559">
        <ele>18.402344</ele>
        <time>2014-06-22T11:29:22Z</time>
      </trkpt>
      <trkpt lat="43.45213" lon="6.5558">
        <ele>21.286377</ele>
        <time>2014-06-22T11:29:36Z</time>
      </trkpt>
      <trkpt lat="43.45213" lon="6.55583">
        <ele>21.286377</ele>
        <time>2014-06-22T11:29:38Z</time>
      </trkpt>
      <trkpt lat="43.45214" lon="6.55599">
        <ele>21.286377</ele>
        <time>2014-06-22T11:29:49Z</time>
      </trkpt>
      <trkpt lat="43.45214" lon="6.55624">
        <ele>18.883057</ele>
        <time>2014-06-22T11:30:08Z</time>
      </trkpt>
      <trkpt lat="43.45212" lon="6.55661">
        <ele>21.286377</ele>
        <time>2014-06-22T11:30:34Z</time>
      </trkpt>
      <trkpt lat="43.45213" lon="6.5568">
        <ele>21.766968</ele>
        <time>2014-06-22T11:30:49Z</time>
      </trkpt>
      <trkpt lat="43.45213" lon="6.55681">
        <ele>21.766968</ele>
        <time>2014-06-22T11:30:50Z</time>
      </trkpt>
      <trkpt lat="43.45214" lon="6.55702">
        <ele>23.689575</ele>
        <time>2014-06-22T11:31:05Z</time>
      </trkpt>
      <trkpt lat="43.45218" lon="6.55728">
        <ele>21.286377</ele>
        <time>2014-06-22T11:31:26Z</time>
      </trkpt>
      <trkpt lat="43.45215" lon="6.55734">
        <ele>19.84436</ele>
        <time>2014-06-22T11:31:43Z</time>
      </trkpt>
      <trkpt lat="43.4521" lon="6.55739">
        <ele>19.84436</ele>
        <time>2014-06-22T11:31:50Z</time>
      </trkpt>
      <trkpt lat="43.45193" lon="6.55764">
        <ele>21.286377</ele>
        <time>2014-06-22T11:32:16Z</time>
      </trkpt>
      <trkpt lat="43.4519" lon="6.55771">
        <ele>22.247559</ele>
        <time>2014-06-22T11:32:37Z</time>
      </trkpt>
      <trkpt lat="43.45181" lon="6.55783">
        <ele>22.728271</ele>
        <time>2014-06-22T11:32:56Z</time>
      </trkpt>
      <trkpt lat="43.45172" lon="6.55794">
        <ele>21.766968</ele>
        <time>2014-06-22T11:33:11Z</time>
      </trkpt>
      <trkpt lat="43.45155" lon="6.55804">
        <ele>22.247559</ele>
        <time>2014-06-22T11:33:30Z</time>
      </trkpt>
      <trkpt lat="43.45132" lon="6.55808">
        <ele>23.689575</ele>
        <time>2014-06-22T11:33:57Z</time>
      </trkpt>
      <trkpt lat="43.45113" lon="6.55814">
        <ele>23.208984</ele>
        <time>2014-06-22T11:34:12Z</time>
      </trkpt>
      <trkpt lat="43.45098" lon="6.55814">
        <ele>22.728271</ele>
        <time>2014-06-22T11:34:28Z</time>
      </trkpt>
      <trkpt lat="43.45079" lon="6.55813">
        <ele>19.36377</ele>
        <time>2014-06-22T11:34:49Z</time>
      </trkpt>
      <trkpt lat="43.45067" lon="6.55812">
        <ele>22.247559</ele>
        <time>2014-06-22T11:35:06Z</time>
      </trkpt>
      <trkpt lat="43.45058" lon="6.55808">
        <ele>20.805664</ele>
        <time>2014-06-22T11:35:21Z</time>
      </trkpt>
      <trkpt lat="43.45048" lon="6.55801">
        <ele>20.324951</ele>
        <time>2014-06-22T11:35:32Z</time>
      </trkpt>
      <trkpt lat="43.4504" lon="6.55798">
        <ele>19.84436</ele>
        <time>2014-06-22T11:35:50Z</time>
      </trkpt>
      <trkpt lat="43.45034" lon="6.55795">
        <ele>18.883057</ele>
        <time>2014-06-22T11:37:41Z</time>
      </trkpt>
      <trkpt lat="43.45029" lon="6.55797">
        <ele>18.402344</ele>
        <time>2014-06-22T11:37:52Z</time>
      </trkpt>
      <trkpt lat="43.45024" lon="6.55804">
        <ele>16.960449</ele>
        <time>2014-06-22T11:38:09Z</time>
      </trkpt>
      <trkpt lat="43.45019" lon="6.55812">
        <ele>15.03772</ele>
        <time>2014-06-22T11:38:27Z</time>
      </trkpt>
      <trkpt lat="43.45004" lon="6.55796">
        <ele>12.634399</ele>
        <time>2014-06-22T11:38:47Z</time>
      </trkpt>
      <trkpt lat="43.45001" lon="6.55796">
        <ele>12.634399</ele>
        <time>2014-06-22T11:38:49Z</time>
      </trkpt>
      <trkpt lat="43.44989" lon="6.55803">
        <ele>17.441162</ele>
        <time>2014-06-22T11:39:06Z</time>
      </trkpt>
      <trkpt lat="43.4497" lon="6.55805">
        <ele>22.247559</ele>
        <time>2014-06-22T11:39:24Z</time>
      </trkpt>
      <trkpt lat="43.44969" lon="6.55806">
        <ele>22.728271</ele>
        <time>2014-06-22T11:39:25Z</time>
      </trkpt>
      <trkpt lat="43.44954" lon="6.55807">
        <ele>26.092896</ele>
        <time>2014-06-22T11:39:37Z</time>
      </trkpt>
      <trkpt lat="43.44951" lon="6.55809">
        <ele>26.573608</ele>
        <time>2014-06-22T11:39:40Z</time>
      </trkpt>
      <trkpt lat="43.44946" lon="6.55809">
        <ele>27.534912</ele>
        <time>2014-06-22T11:39:45Z</time>
      </trkpt>
      <trkpt lat="43.4493" lon="6.5581">
        <ele>28.015503</ele>
        <time>2014-06-22T11:40:00Z</time>
      </trkpt>
      <trkpt lat="43.44927" lon="6.5581">
        <ele>28.015503</ele>
        <time>2014-06-22T11:40:02Z</time>
      </trkpt>
      <trkpt lat="43.44912" lon="6.5581">
        <ele>28.496216</ele>
        <time>2014-06-22T11:40:18Z</time>
      </trkpt>
      <trkpt lat="43.44896" lon="6.55799">
        <ele>28.496216</ele>
        <time>2014-06-22T11:40:36Z</time>
      </trkpt>
      <trkpt lat="43.44887" lon="6.55799">
        <ele>28.496216</ele>
        <time>2014-06-22T11:40:43Z</time>
      </trkpt>
      <trkpt lat="43.44882" lon="6.558">
        <ele>28.015503</ele>
        <time>2014-06-22T11:40:47Z</time>
      </trkpt>
      <trkpt lat="43.44875" lon="6.558">
        <ele>27.534912</ele>
        <time>2014-06-22T11:40:54Z</time>
      </trkpt>
      <trkpt lat="43.4487" lon="6.55798">
        <ele>27.534912</ele>
        <time>2014-06-22T11:40:58Z</time>
      </trkpt>
      <trkpt lat="43.44854" lon="6.55795">
        <ele>27.534912</ele>
        <time>2014-06-22T11:41:14Z</time>
      </trkpt>
      <trkpt lat="43.44835" lon="6.55784">
        <ele>27.534912</ele>
        <time>2014-06-22T11:41:33Z</time>
      </trkpt>
      <trkpt lat="43.44815" lon="6.55774">
        <ele>27.054321</ele>
        <time>2014-06-22T11:42:03Z</time>
      </trkpt>
      <trkpt lat="43.44795" lon="6.55766">
        <ele>26.573608</ele>
        <time>2014-06-22T11:42:24Z</time>
      </trkpt>
      <trkpt lat="43.44781" lon="6.55764">
        <ele>27.054321</ele>
        <time>2014-06-22T11:42:38Z</time>
      </trkpt>
      <trkpt lat="43.44762" lon="6.55767">
        <ele>28.976929</ele>
        <time>2014-06-22T11:43:00Z</time>
      </trkpt>
      <trkpt lat="43.44741" lon="6.55766">
        <ele>31.380127</ele>
        <time>2014-06-22T11:43:22Z</time>
      </trkpt>
      <trkpt lat="43.44738" lon="6.55766">
        <ele>31.380127</ele>
        <time>2014-06-22T11:43:25Z</time>
      </trkpt>
      <trkpt lat="43.4472" lon="6.55758">
        <ele>31.380127</ele>
        <time>2014-06-22T11:43:42Z</time>
      </trkpt>
      <trkpt lat="43.44699" lon="6.55763">
        <ele>32.822266</ele>
        <time>2014-06-22T11:44:09Z</time>
      </trkpt>
      <trkpt lat="43.44679" lon="6.55796">
        <ele>33.783447</ele>
        <time>2014-06-22T11:44:42Z</time>
      </trkpt>
      <trkpt lat="43.44667" lon="6.55802">
        <ele>34.26416</ele>
        <time>2014-06-22T11:44:59Z</time>
      </trkpt>
      <trkpt lat="43.44654" lon="6.55824">
        <ele>34.744873</ele>
        <time>2014-06-22T11:45:20Z</time>
      </trkpt>
      <trkpt lat="43.44644" lon="6.5584">
        <ele>35.225464</ele>
        <time>2014-06-22T11:45:46Z</time>
      </trkpt>
      <trkpt lat="43.44641" lon="6.55841">
        <ele>35.225464</ele>
        <time>2014-06-22T11:45:51Z</time>
      </trkpt>
      <trkpt lat="43.44622" lon="6.55834">
        <ele>35.706055</ele>
        <time>2014-06-22T11:46:11Z</time>
      </trkpt>
      <trkpt lat="43.44602" lon="6.55831">
        <ele>35.706055</ele>
        <time>2014-06-22T11:46:35Z</time>
      </trkpt>
      <trkpt lat="43.44585" lon="6.55825">
        <ele>35.706055</ele>
        <time>2014-06-22T11:46:54Z</time>
      </trkpt>
      <trkpt lat="43.44566" lon="6.55821">
        <ele>32.341553</ele>
        <time>2014-06-22T11:47:15Z</time>
      </trkpt>
      <trkpt lat="43.44557" lon="6.55824">
        <ele>30.418823</ele>
        <time>2014-06-22T11:47:36Z</time>
      </trkpt>
      <trkpt lat="43.44541" lon="6.55817">
        <ele>29.45752</ele>
        <time>2014-06-22T11:47:55Z</time>
      </trkpt>
      <trkpt lat="43.44525" lon="6.55808">
        <ele>28.015503</ele>
        <time>2014-06-22T11:48:13Z</time>
      </trkpt>
      <trkpt lat="43.44514" lon="6.55807">
        <ele>22.247559</ele>
        <time>2014-06-22T11:48:28Z</time>
      </trkpt>
      <trkpt lat="43.44502" lon="6.55804">
        <ele>21.766968</ele>
        <time>2014-06-22T11:48:45Z</time>
      </trkpt>
      <trkpt lat="43.44499" lon="6.55801">
        <ele>21.286377</ele>
        <time>2014-06-22T11:48:49Z</time>
      </trkpt>
      <trkpt lat="43.44486" lon="6.55793">
        <ele>20.324951</ele>
        <time>2014-06-22T11:49:07Z</time>
      </trkpt>
      <trkpt lat="43.44475" lon="6.55776">
        <ele>17.441162</ele>
        <time>2014-06-22T11:49:29Z</time>
      </trkpt>
      <trkpt lat="43.44451" lon="6.5577">
        <ele>15.03772</ele>
        <time>2014-06-22T11:49:53Z</time>
      </trkpt>
      <trkpt lat="43.44443" lon="6.55772">
        <ele>14.557007</ele>
        <time>2014-06-22T11:50:01Z</time>
      </trkpt>
      <trkpt lat="43.44431" lon="6.55772">
        <ele>14.557007</ele>
        <time>2014-06-22T11:50:22Z</time>
      </trkpt>
      <trkpt lat="43.44421" lon="6.55777">
        <ele>16.960449</ele>
        <time>2014-06-22T11:50:37Z</time>
      </trkpt>
      <trkpt lat="43.44421" lon="6.55776">
        <ele>15.999023</ele>
        <time>2014-06-22T11:50:51Z</time>
      </trkpt>
      <trkpt lat="43.44406" lon="6.55777">
        <ele>8.308594</ele>
        <time>2014-06-22T11:51:09Z</time>
      </trkpt>
      <trkpt lat="43.44404" lon="6.55779">
        <ele>7.827881</ele>
        <time>2014-06-22T11:51:11Z</time>
      </trkpt>
      <trkpt lat="43.44389" lon="6.55786">
        <ele>2.060059</ele>
        <time>2014-06-22T11:51:28Z</time>
      </trkpt>
      <trkpt lat="43.44385" lon="6.55813">
        <ele>-4.188599</ele>
        <time>2014-06-22T11:51:57Z</time>
      </trkpt>
      <trkpt lat="43.44383" lon="6.55814">
        <ele>-8.995239</ele>
        <time>2014-06-22T11:52:41Z</time>
      </trkpt>
      <trkpt lat="43.44384" lon="6.55813">
        <ele>-0.343384</ele>
        <time>2014-06-22T12:07:22Z</time>
      </trkpt>
      <trkpt lat="43.44384" lon="6.5581">
        <ele>11.673218</ele>
        <time>2014-06-22T12:53:04Z</time>
      </trkpt>
      <trkpt lat="43.44386" lon="6.55804">
        <ele>11.673218</ele>
        <time>2014-06-22T12:55:52Z</time>
      </trkpt>
      <trkpt lat="43.44388" lon="6.55791">
        <ele>13.115112</ele>
        <time>2014-06-22T12:56:08Z</time>
      </trkpt>
      <trkpt lat="43.44399" lon="6.55769">
        <ele>15.518433</ele>
        <time>2014-06-22T12:56:24Z</time>
      </trkpt>
      <trkpt lat="43.44415" lon="6.55769">
        <ele>19.36377</ele>
        <time>2014-06-22T12:56:51Z</time>
      </trkpt>
      <trkpt lat="43.44433" lon="6.55754">
        <ele>19.84436</ele>
        <time>2014-06-22T12:57:22Z</time>
      </trkpt>
      <trkpt lat="43.44447" lon="6.55743">
        <ele>19.36377</ele>
        <time>2014-06-22T12:57:44Z</time>
      </trkpt>
      <trkpt lat="43.44468" lon="6.55727">
        <ele>19.36377</ele>
        <time>2014-06-22T12:58:15Z</time>
      </trkpt>
      <trkpt lat="43.4448" lon="6.55719">
        <ele>17.441162</ele>
        <time>2014-06-22T12:58:32Z</time>
      </trkpt>
      <trkpt lat="43.44498" lon="6.5572">
        <ele>17.441162</ele>
        <time>2014-06-22T12:58:53Z</time>
      </trkpt>
      <trkpt lat="43.44518" lon="6.55723">
        <ele>18.402344</ele>
        <time>2014-06-22T12:59:14Z</time>
      </trkpt>
      <trkpt lat="43.44539" lon="6.55727">
        <ele>16.479736</ele>
        <time>2014-06-22T12:59:33Z</time>
      </trkpt>
      <trkpt lat="43.44552" lon="6.55731">
        <ele>16.479736</ele>
        <time>2014-06-22T12:59:52Z</time>
      </trkpt>
      <trkpt lat="43.44553" lon="6.55731">
        <ele>16.479736</ele>
        <time>2014-06-22T12:59:53Z</time>
      </trkpt>
      <trkpt lat="43.44562" lon="6.55723">
        <ele>17.441162</ele>
        <time>2014-06-22T13:00:07Z</time>
      </trkpt>
      <trkpt lat="43.44576" lon="6.55716">
        <ele>17.441162</ele>
        <time>2014-06-22T13:00:27Z</time>
      </trkpt>
      <trkpt lat="43.44576" lon="6.55699">
        <ele>17.921753</ele>
        <time>2014-06-22T13:01:31Z</time>
      </trkpt>
      <trkpt lat="43.44573" lon="6.5569">
        <ele>18.883057</ele>
        <time>2014-06-22T13:01:40Z</time>
      </trkpt>
      <trkpt lat="43.44564" lon="6.55665">
        <ele>20.324951</ele>
        <time>2014-06-22T13:01:59Z</time>
      </trkpt>
      <trkpt lat="43.44561" lon="6.55654">
        <ele>20.805664</ele>
        <time>2014-06-22T13:02:06Z</time>
      </trkpt>
      <trkpt lat="43.44559" lon="6.55637">
        <ele>23.208984</ele>
        <time>2014-06-22T13:02:23Z</time>
      </trkpt>
      <trkpt lat="43.44553" lon="6.55624">
        <ele>25.612305</ele>
        <time>2014-06-22T13:02:36Z</time>
      </trkpt>
      <trkpt lat="43.44553" lon="6.55584">
        <ele>32.341553</ele>
        <time>2014-06-22T13:03:02Z</time>
      </trkpt>
      <trkpt lat="43.44549" lon="6.5557">
        <ele>38.109375</ele>
        <time>2014-06-22T13:03:18Z</time>
      </trkpt>
      <trkpt lat="43.44537" lon="6.55527">
        <ele>47.722534</ele>
        <time>2014-06-22T13:03:52Z</time>
      </trkpt>
      <trkpt lat="43.44538" lon="6.55515">
        <ele>50.125977</ele>
        <time>2014-06-22T13:04:01Z</time>
      </trkpt>
      <trkpt lat="43.44535" lon="6.55501">
        <ele>54.451782</ele>
        <time>2014-06-22T13:04:18Z</time>
      </trkpt>
      <trkpt lat="43.44519" lon="6.5551">
        <ele>58.297119</ele>
        <time>2014-06-22T13:04:42Z</time>
      </trkpt>
      <trkpt lat="43.44511" lon="6.55516">
        <ele>59.258423</ele>
        <time>2014-06-22T13:04:50Z</time>
      </trkpt>
      <trkpt lat="43.44491" lon="6.55498">
        <ele>61.661743</ele>
        <time>2014-06-22T13:05:12Z</time>
      </trkpt>
      <trkpt lat="43.44467" lon="6.55489">
        <ele>65.026367</ele>
        <time>2014-06-22T13:05:39Z</time>
      </trkpt>
      <trkpt lat="43.44454" lon="6.55475">
        <ele>66.948975</ele>
        <time>2014-06-22T13:05:53Z</time>
      </trkpt>
      <trkpt lat="43.44451" lon="6.55438">
        <ele>68.390869</ele>
        <time>2014-06-22T13:06:15Z</time>
      </trkpt>
      <trkpt lat="43.44451" lon="6.55434">
        <ele>65.987671</ele>
        <time>2014-06-22T13:06:30Z</time>
      </trkpt>
      <trkpt lat="43.4446" lon="6.55409">
        <ele>64.065063</ele>
        <time>2014-06-22T13:06:47Z</time>
      </trkpt>
      <trkpt lat="43.44461" lon="6.55399">
        <ele>62.142334</ele>
        <time>2014-06-22T13:06:52Z</time>
      </trkpt>
      <trkpt lat="43.44455" lon="6.55379">
        <ele>55.893799</ele>
        <time>2014-06-22T13:07:05Z</time>
      </trkpt>
      <trkpt lat="43.44449" lon="6.55361">
        <ele>37.628662</ele>
        <time>2014-06-22T13:07:23Z</time>
      </trkpt>
      <trkpt lat="43.44451" lon="6.5533">
        <ele>24.170288</ele>
        <time>2014-06-22T13:07:50Z</time>
      </trkpt>
      <trkpt lat="43.44449" lon="6.55323">
        <ele>21.766968</ele>
        <time>2014-06-22T13:07:57Z</time>
      </trkpt>
      <trkpt lat="43.44437" lon="6.55305">
        <ele>16.479736</ele>
        <time>2014-06-22T13:08:13Z</time>
      </trkpt>
      <trkpt lat="43.44426" lon="6.55288">
        <ele>10.231201</ele>
        <time>2014-06-22T13:08:35Z</time>
      </trkpt>
      <trkpt lat="43.44407" lon="6.55253">
        <ele>2.060059</ele>
        <time>2014-06-22T13:09:15Z</time>
      </trkpt>
      <trkpt lat="43.44402" lon="6.55222">
        <ele>-1.304688</ele>
        <time>2014-06-22T13:09:37Z</time>
      </trkpt>
      <trkpt lat="43.44399" lon="6.55194">
        <ele>-4.669312</ele>
        <time>2014-06-22T13:10:05Z</time>
      </trkpt>
      <trkpt lat="43.44383" lon="6.55174">
        <ele>-5.149902</ele>
        <time>2014-06-22T13:10:31Z</time>
      </trkpt>
      <trkpt lat="43.44371" lon="6.55158">
        <ele>-5.149902</ele>
        <time>2014-06-22T13:11:00Z</time>
      </trkpt>
      <trkpt lat="43.44364" lon="6.55113">
        <ele>-5.149902</ele>
        <time>2014-06-22T13:11:31Z</time>
      </trkpt>
      <trkpt lat="43.4436" lon="6.55056">
        <ele>1.579346</ele>
        <time>2014-06-22T13:12:06Z</time>
      </trkpt>
      <trkpt lat="43.44364" lon="6.55041">
        <ele>7.347168</ele>
        <time>2014-06-22T13:12:24Z</time>
      </trkpt>
      <trkpt lat="43.44376" lon="6.55025">
        <ele>12.153809</ele>
        <time>2014-06-22T13:12:47Z</time>
      </trkpt>
      <trkpt lat="43.44384" lon="6.55022">
        <ele>13.595825</ele>
        <time>2014-06-22T13:13:00Z</time>
      </trkpt>
      <trkpt lat="43.44413" lon="6.55015">
        <ele>16.960449</ele>
        <time>2014-06-22T13:13:30Z</time>
      </trkpt>
      <trkpt lat="43.44444" lon="6.54997">
        <ele>21.286377</ele>
        <time>2014-06-22T13:14:05Z</time>
      </trkpt>
      <trkpt lat="43.44457" lon="6.54976">
        <ele>23.208984</ele>
        <time>2014-06-22T13:14:31Z</time>
      </trkpt>
      <trkpt lat="43.44455" lon="6.54976">
        <ele>22.728271</ele>
        <time>2014-06-22T13:14:53Z</time>
      </trkpt>
      <trkpt lat="43.44473" lon="6.54965">
        <ele>21.286377</ele>
        <time>2014-06-22T13:16:10Z</time>
      </trkpt>
      <trkpt lat="43.44478" lon="6.5496">
        <ele>21.766968</ele>
        <time>2014-06-22T13:16:14Z</time>
      </trkpt>
      <trkpt lat="43.44487" lon="6.54952">
        <ele>20.805664</ele>
        <time>2014-06-22T13:16:23Z</time>
      </trkpt>
      <trkpt lat="43.44492" lon="6.54948">
        <ele>20.805664</ele>
        <time>2014-06-22T13:16:28Z</time>
      </trkpt>
      <trkpt lat="43.44501" lon="6.54936">
        <ele>19.84436</ele>
        <time>2014-06-22T13:16:43Z</time>
      </trkpt>
      <trkpt lat="43.44506" lon="6.54932">
        <ele>20.324951</ele>
        <time>2014-06-22T13:16:49Z</time>
      </trkpt>
      <trkpt lat="43.44521" lon="6.54912">
        <ele>21.766968</ele>
        <time>2014-06-22T13:17:06Z</time>
      </trkpt>
      <trkpt lat="43.44525" lon="6.54906">
        <ele>22.728271</ele>
        <time>2014-06-22T13:17:13Z</time>
      </trkpt>
      <trkpt lat="43.4453" lon="6.5489">
        <ele>23.689575</ele>
        <time>2014-06-22T13:17:26Z</time>
      </trkpt>
      <trkpt lat="43.4453" lon="6.54887">
        <ele>23.689575</ele>
        <time>2014-06-22T13:17:28Z</time>
      </trkpt>
      <trkpt lat="43.44538" lon="6.5487">
        <ele>24.651001</ele>
        <time>2014-06-22T13:17:44Z</time>
      </trkpt>
      <trkpt lat="43.44542" lon="6.54865">
        <ele>25.131714</ele>
        <time>2014-06-22T13:17:50Z</time>
      </trkpt>
      <trkpt lat="43.44555" lon="6.5485">
        <ele>25.612305</ele>
        <time>2014-06-22T13:18:10Z</time>
      </trkpt>
      <trkpt lat="43.44564" lon="6.54828">
        <ele>26.573608</ele>
        <time>2014-06-22T13:18:24Z</time>
      </trkpt>
      <trkpt lat="43.44581" lon="6.54812">
        <ele>28.015503</ele>
        <time>2014-06-22T13:18:45Z</time>
      </trkpt>
      <trkpt lat="43.44606" lon="6.54812">
        <ele>29.93811</ele>
        <time>2014-06-22T13:19:12Z</time>
      </trkpt>
      <trkpt lat="43.44608" lon="6.5481">
        <ele>29.93811</ele>
        <time>2014-06-22T13:19:15Z</time>
      </trkpt>
      <trkpt lat="43.4462" lon="6.54815">
        <ele>29.93811</ele>
        <time>2014-06-22T13:19:31Z</time>
      </trkpt>
      <trkpt lat="43.4464" lon="6.54817">
        <ele>30.418823</ele>
        <time>2014-06-22T13:19:52Z</time>
      </trkpt>
      <trkpt lat="43.44657" lon="6.5482">
        <ele>28.015503</ele>
        <time>2014-06-22T13:20:10Z</time>
      </trkpt>
      <trkpt lat="43.44676" lon="6.54834">
        <ele>25.131714</ele>
        <time>2014-06-22T13:20:28Z</time>
      </trkpt>
      <trkpt lat="43.44686" lon="6.54838">
        <ele>24.170288</ele>
        <time>2014-06-22T13:20:37Z</time>
      </trkpt>
      <trkpt lat="43.44715" lon="6.54822">
        <ele>19.84436</ele>
        <time>2014-06-22T13:21:10Z</time>
      </trkpt>
      <trkpt lat="43.44742" lon="6.54815">
        <ele>16.960449</ele>
        <time>2014-06-22T13:21:34Z</time>
      </trkpt>
      <trkpt lat="43.44768" lon="6.54813">
        <ele>15.03772</ele>
        <time>2014-06-22T13:21:56Z</time>
      </trkpt>
      <trkpt lat="43.44786" lon="6.54801">
        <ele>15.03772</ele>
        <time>2014-06-22T13:22:16Z</time>
      </trkpt>
      <trkpt lat="43.44801" lon="6.54795">
        <ele>14.076416</ele>
        <time>2014-06-22T13:22:32Z</time>
      </trkpt>
      <trkpt lat="43.44822" lon="6.54778">
        <ele>13.115112</ele>
        <time>2014-06-22T13:22:54Z</time>
      </trkpt>
      <trkpt lat="43.44823" lon="6.54734">
        <ele>13.115112</ele>
        <time>2014-06-22T13:23:18Z</time>
      </trkpt>
      <trkpt lat="43.44832" lon="6.54737">
        <ele>13.595825</ele>
        <time>2014-06-22T13:23:34Z</time>
      </trkpt>
      <trkpt lat="43.44832" lon="6.54733">
        <ele>13.595825</ele>
        <time>2014-06-22T13:23:39Z</time>
      </trkpt>
      <trkpt lat="43.4484" lon="6.54722">
        <ele>15.03772</ele>
        <time>2014-06-22T13:23:57Z</time>
      </trkpt>
      <trkpt lat="43.44845" lon="6.54714">
        <ele>14.557007</ele>
        <time>2014-06-22T13:24:07Z</time>
      </trkpt>
      <trkpt lat="43.44863" lon="6.54695">
        <ele>15.999023</ele>
        <time>2014-06-22T13:24:29Z</time>
      </trkpt>
      <trkpt lat="43.44863" lon="6.54693">
        <ele>15.999023</ele>
        <time>2014-06-22T13:24:45Z</time>
      </trkpt>
      <trkpt lat="43.44865" lon="6.54684">
        <ele>16.479736</ele>
        <time>2014-06-22T13:25:04Z</time>
      </trkpt>
      <trkpt lat="43.44869" lon="6.54662">
        <ele>16.960449</ele>
        <time>2014-06-22T13:25:17Z</time>
      </trkpt>
      <trkpt lat="43.44877" lon="6.54652">
        <ele>17.441162</ele>
        <time>2014-06-22T13:25:30Z</time>
      </trkpt>
      <trkpt lat="43.44888" lon="6.54638">
        <ele>18.402344</ele>
        <time>2014-06-22T13:25:48Z</time>
      </trkpt>
      <trkpt lat="43.44887" lon="6.54626">
        <ele>19.84436</ele>
        <time>2014-06-22T13:26:02Z</time>
      </trkpt>
      <trkpt lat="43.44887" lon="6.54598">
        <ele>21.286377</ele>
        <time>2014-06-22T13:26:25Z</time>
      </trkpt>
      <trkpt lat="43.44891" lon="6.54581">
        <ele>22.728271</ele>
        <time>2014-06-22T13:26:46Z</time>
      </trkpt>
      <trkpt lat="43.4489" lon="6.54533">
        <ele>25.612305</ele>
        <time>2014-06-22T13:27:23Z</time>
      </trkpt>
      <trkpt lat="43.44885" lon="6.54479">
        <ele>28.015503</ele>
        <time>2014-06-22T13:27:55Z</time>
      </trkpt>
      <trkpt lat="43.44867" lon="6.54444">
        <ele>29.93811</ele>
        <time>2014-06-22T13:28:30Z</time>
      </trkpt>
      <trkpt lat="43.44839" lon="6.54386">
        <ele>31.380127</ele>
        <time>2014-06-22T13:29:11Z</time>
      </trkpt>
      <trkpt lat="43.44811" lon="6.54355">
        <ele>29.93811</ele>
        <time>2014-06-22T13:29:37Z</time>
      </trkpt>
      <trkpt lat="43.44793" lon="6.54338">
        <ele>28.976929</ele>
        <time>2014-06-22T13:30:01Z</time>
      </trkpt>
      <trkpt lat="43.44773" lon="6.54302">
        <ele>27.534912</ele>
        <time>2014-06-22T13:30:29Z</time>
      </trkpt>
      <trkpt lat="43.44762" lon="6.54284">
        <ele>24.170288</ele>
        <time>2014-06-22T13:30:47Z</time>
      </trkpt>
      <trkpt lat="43.44755" lon="6.54277">
        <ele>23.689575</ele>
        <time>2014-06-22T13:30:56Z</time>
      </trkpt>
      <trkpt lat="43.44742" lon="6.54261">
        <ele>23.689575</ele>
        <time>2014-06-22T13:31:16Z</time>
      </trkpt>
      <trkpt lat="43.44732" lon="6.54254">
        <ele>25.131714</ele>
        <time>2014-06-22T13:31:28Z</time>
      </trkpt>
      <trkpt lat="43.44726" lon="6.54249">
        <ele>28.496216</ele>
        <time>2014-06-22T13:31:44Z</time>
      </trkpt>
      <trkpt lat="43.44712" lon="6.54247">
        <ele>28.976929</ele>
        <time>2014-06-22T13:32:04Z</time>
      </trkpt>
      <trkpt lat="43.44688" lon="6.54233">
        <ele>30.899536</ele>
        <time>2014-06-22T13:32:31Z</time>
      </trkpt>
      <trkpt lat="43.44671" lon="6.54217">
        <ele>31.860718</ele>
        <time>2014-06-22T13:32:56Z</time>
      </trkpt>
      <trkpt lat="43.44655" lon="6.54208">
        <ele>32.341553</ele>
        <time>2014-06-22T13:33:18Z</time>
      </trkpt>
      <trkpt lat="43.44626" lon="6.54192">
        <ele>32.341553</ele>
        <time>2014-06-22T13:33:49Z</time>
      </trkpt>
      <trkpt lat="43.44604" lon="6.54176">
        <ele>30.899536</ele>
        <time>2014-06-22T13:34:14Z</time>
      </trkpt>
      <trkpt lat="43.44568" lon="6.54167">
        <ele>29.45752</ele>
        <time>2014-06-22T13:34:50Z</time>
      </trkpt>
      <trkpt lat="43.44533" lon="6.5415">
        <ele>28.015503</ele>
        <time>2014-06-22T13:35:26Z</time>
      </trkpt>
      <trkpt lat="43.44522" lon="6.54142">
        <ele>26.573608</ele>
        <time>2014-06-22T13:35:50Z</time>
      </trkpt>
      <trkpt lat="43.44514" lon="6.54135">
        <ele>26.573608</ele>
        <time>2014-06-22T13:36:23Z</time>
      </trkpt>
      <trkpt lat="43.44503" lon="6.54132">
        <ele>25.612305</ele>
        <time>2014-06-22T13:36:37Z</time>
      </trkpt>
      <trkpt lat="43.44493" lon="6.54129">
        <ele>24.170288</ele>
        <time>2014-06-22T13:36:52Z</time>
      </trkpt>
      <trkpt lat="43.44471" lon="6.54136">
        <ele>22.728271</ele>
        <time>2014-06-22T13:37:15Z</time>
      </trkpt>
      <trkpt lat="43.44462" lon="6.54136">
        <ele>21.766968</ele>
        <time>2014-06-22T13:37:41Z</time>
      </trkpt>
      <trkpt lat="43.4445" lon="6.54135">
        <ele>20.805664</ele>
        <time>2014-06-22T13:38:21Z</time>
      </trkpt>
      <trkpt lat="43.44435" lon="6.54139">
        <ele>21.766968</ele>
        <time>2014-06-22T13:38:33Z</time>
      </trkpt>
      <trkpt lat="43.4442" lon="6.54149">
        <ele>22.247559</ele>
        <time>2014-06-22T13:38:51Z</time>
      </trkpt>
      <trkpt lat="43.44409" lon="6.5416">
        <ele>20.324951</ele>
        <time>2014-06-22T13:39:07Z</time>
      </trkpt>
      <trkpt lat="43.44392" lon="6.54179">
        <ele>17.441162</ele>
        <time>2014-06-22T13:39:29Z</time>
      </trkpt>
      <trkpt lat="43.4437" lon="6.54191">
        <ele>15.999023</ele>
        <time>2014-06-22T13:39:53Z</time>
      </trkpt>
      <trkpt lat="43.44348" lon="6.54194">
        <ele>17.921753</ele>
        <time>2014-06-22T13:40:18Z</time>
      </trkpt>
      <trkpt lat="43.44332" lon="6.54188">
        <ele>20.324951</ele>
        <time>2014-06-22T13:40:40Z</time>
      </trkpt>
      <trkpt lat="43.44321" lon="6.54181">
        <ele>20.805664</ele>
        <time>2014-06-22T13:41:03Z</time>
      </trkpt>
      <trkpt lat="43.44314" lon="6.54179">
        <ele>19.84436</ele>
        <time>2014-06-22T13:41:11Z</time>
      </trkpt>
      <trkpt lat="43.44301" lon="6.54171">
        <ele>20.324951</ele>
        <time>2014-06-22T13:41:27Z</time>
      </trkpt>
      <trkpt lat="43.443" lon="6.5417">
        <ele>20.324951</ele>
        <time>2014-06-22T13:41:29Z</time>
      </trkpt>
      <trkpt lat="43.44283" lon="6.54167">
        <ele>20.805664</ele>
        <time>2014-06-22T13:41:49Z</time>
      </trkpt>
      <trkpt lat="43.44273" lon="6.54171">
        <ele>21.286377</ele>
        <time>2014-06-22T13:42:05Z</time>
      </trkpt>
      <trkpt lat="43.44253" lon="6.5418">
        <ele>18.402344</ele>
        <time>2014-06-22T13:42:27Z</time>
      </trkpt>
      <trkpt lat="43.44247" lon="6.54185">
        <ele>15.518433</ele>
        <time>2014-06-22T13:42:37Z</time>
      </trkpt>
      <trkpt lat="43.44221" lon="6.54197">
        <ele>7.827881</ele>
        <time>2014-06-22T13:43:04Z</time>
      </trkpt>
      <trkpt lat="43.44211" lon="6.54191">
        <ele>4.943848</ele>
        <time>2014-06-22T13:43:14Z</time>
      </trkpt>
      <trkpt lat="43.44208" lon="6.54173">
        <ele>-0.824097</ele>
        <time>2014-06-22T13:43:38Z</time>
      </trkpt>
      <trkpt lat="43.44195" lon="6.54154">
        <ele>-5.149902</ele>
        <time>2014-06-22T13:44:14Z</time>
      </trkpt>
      <trkpt lat="43.44158" lon="6.54139">
        <ele>-8.995239</ele>
        <time>2014-06-22T13:44:45Z</time>
      </trkpt>
      <trkpt lat="43.44142" lon="6.54134">
        <ele>-11.87915</ele>
        <time>2014-06-22T13:45:15Z</time>
      </trkpt>
      <trkpt lat="43.44128" lon="6.54131">
        <ele>-17.647095</ele>
        <time>2014-06-22T13:46:17Z</time>
      </trkpt>
      <trkpt lat="43.44153" lon="6.54142">
        <ele>-18.127808</ele>
        <time>2014-06-22T13:47:02Z</time>
      </trkpt>
      <trkpt lat="43.44153" lon="6.54138">
        <ele>-17.647095</ele>
        <time>2014-06-22T13:47:24Z</time>
      </trkpt>
      <trkpt lat="43.4414" lon="6.54137">
        <ele>-16.685791</ele>
        <time>2014-06-22T13:47:55Z</time>
      </trkpt>
      <trkpt lat="43.44142" lon="6.54133">
        <ele>-16.685791</ele>
        <time>2014-06-22T13:48:39Z</time>
      </trkpt>
      <trkpt lat="43.441" lon="6.54104">
        <ele>-16.2052</ele>
        <time>2014-06-22T13:49:18Z</time>
      </trkpt>
      <trkpt lat="43.44101" lon="6.54106">
        <ele>-16.2052</ele>
        <time>2014-06-22T13:50:16Z</time>
      </trkpt>
      <trkpt lat="43.44083" lon="6.54114">
        <ele>-16.2052</ele>
        <time>2014-06-22T13:50:56Z</time>
      </trkpt>
      <trkpt lat="43.44059" lon="6.54116">
        <ele>-15.724365</ele>
        <time>2014-06-22T13:51:33Z</time>
      </trkpt>
      <trkpt lat="43.44046" lon="6.54085">
        <ele>-14.763062</ele>
        <time>2014-06-22T13:52:11Z</time>
      </trkpt>
      <trkpt lat="43.44034" lon="6.54054">
        <ele>-14.282471</ele>
        <time>2014-06-22T13:52:42Z</time>
      </trkpt>
      <trkpt lat="43.44031" lon="6.54015">
        <ele>-13.801758</ele>
        <time>2014-06-22T13:53:15Z</time>
      </trkpt>
      <trkpt lat="43.44036" lon="6.53974">
        <ele>-13.801758</ele>
        <time>2014-06-22T13:53:48Z</time>
      </trkpt>
      <trkpt lat="43.44038" lon="6.53972">
        <ele>-14.282471</ele>
        <time>2014-06-22T13:53:49Z</time>
      </trkpt>
      <trkpt lat="43.44037" lon="6.53954">
        <ele>-15.724365</ele>
        <time>2014-06-22T13:54:01Z</time>
      </trkpt>
      <trkpt lat="43.44044" lon="6.53935">
        <ele>-21.973022</ele>
        <time>2014-06-22T13:54:17Z</time>
      </trkpt>
      <trkpt lat="43.44049" lon="6.53914">
        <ele>-32.066895</ele>
        <time>2014-06-22T13:54:37Z</time>
      </trkpt>
      <trkpt lat="43.44058" lon="6.53896">
        <ele>-42.641357</ele>
        <time>2014-06-22T13:54:55Z</time>
      </trkpt>
      <trkpt lat="43.44066" lon="6.53862">
        <ele>-56.099854</ele>
        <time>2014-06-22T13:55:26Z</time>
      </trkpt>
      <trkpt lat="43.44076" lon="6.53845">
        <ele>-65.2323</ele>
        <time>2014-06-22T13:55:50Z</time>
      </trkpt>
      <trkpt lat="43.44101" lon="6.5382">
        <ele>-69.558228</ele>
        <time>2014-06-22T13:56:19Z</time>
      </trkpt>
      <trkpt lat="43.44128" lon="6.53804">
        <ele>-74.364868</ele>
        <time>2014-06-22T13:56:52Z</time>
      </trkpt>
      <trkpt lat="43.4413" lon="6.53802">
        <ele>-74.364868</ele>
        <time>2014-06-22T13:56:54Z</time>
      </trkpt>
      <trkpt lat="43.44159" lon="6.5377">
        <ele>-79.6521</ele>
        <time>2014-06-22T13:57:29Z</time>
      </trkpt>
      <trkpt lat="43.44186" lon="6.53743">
        <ele>-83.497437</ele>
        <time>2014-06-22T13:57:57Z</time>
      </trkpt>
      <trkpt lat="43.44208" lon="6.53707">
        <ele>-87.342651</ele>
        <time>2014-06-22T13:58:24Z</time>
      </trkpt>
      <trkpt lat="43.44209" lon="6.53705">
        <ele>-87.342651</ele>
        <time>2014-06-22T13:58:25Z</time>
      </trkpt>
      <trkpt lat="43.44237" lon="6.53658">
        <ele>-91.668579</ele>
        <time>2014-06-22T13:58:56Z</time>
      </trkpt>
      <trkpt lat="43.44237" lon="6.53644">
        <ele>-94.55249</ele>
        <time>2014-06-22T13:59:21Z</time>
      </trkpt>
      <trkpt lat="43.44246" lon="6.53635">
        <ele>-93.591187</ele>
        <time>2014-06-22T13:59:33Z</time>
      </trkpt>
      <trkpt lat="43.44287" lon="6.53605">
        <ele>-94.55249</ele>
        <time>2014-06-22T14:00:02Z</time>
      </trkpt>
      <trkpt lat="43.44296" lon="6.53597">
        <ele>-96.47522</ele>
        <time>2014-06-22T14:00:14Z</time>
      </trkpt>
      <trkpt lat="43.44298" lon="6.53578">
        <ele>-92.629883</ele>
        <time>2014-06-22T14:00:33Z</time>
      </trkpt>
      <trkpt lat="43.44313" lon="6.5354">
        <ele>-88.784668</ele>
        <time>2014-06-22T14:01:02Z</time>
      </trkpt>
      <trkpt lat="43.44327" lon="6.53506">
        <ele>-71.480835</ele>
        <time>2014-06-22T14:01:20Z</time>
      </trkpt>
      <trkpt lat="43.44336" lon="6.53482">
        <ele>-70.519531</ele>
        <time>2014-06-22T14:01:37Z</time>
      </trkpt>
      <trkpt lat="43.4434" lon="6.53465">
        <ele>-71.480835</ele>
        <time>2014-06-22T14:01:53Z</time>
      </trkpt>
      <trkpt lat="43.44373" lon="6.5343">
        <ele>-58.022461</ele>
        <time>2014-06-22T14:02:11Z</time>
      </trkpt>
      <trkpt lat="43.44376" lon="6.53419">
        <ele>-59.945068</ele>
        <time>2014-06-22T14:02:22Z</time>
      </trkpt>
      <trkpt lat="43.44394" lon="6.53398">
        <ele>-56.099854</ele>
        <time>2014-06-22T14:02:40Z</time>
      </trkpt>
      <trkpt lat="43.44412" lon="6.5339">
        <ele>-54.177124</ele>
        <time>2014-06-22T14:02:54Z</time>
      </trkpt>
      <trkpt lat="43.44418" lon="6.53361">
        <ele>-50.812622</ele>
        <time>2014-06-22T14:03:16Z</time>
      </trkpt>
      <trkpt lat="43.44421" lon="6.53335">
        <ele>-47.928467</ele>
        <time>2014-06-22T14:03:37Z</time>
      </trkpt>
      <trkpt lat="43.44419" lon="6.53292">
        <ele>-44.083252</ele>
        <time>2014-06-22T14:04:01Z</time>
      </trkpt>
      <trkpt lat="43.4441" lon="6.53238">
        <ele>-40.238037</ele>
        <time>2014-06-22T14:04:32Z</time>
      </trkpt>
      <trkpt lat="43.44406" lon="6.53217">
        <ele>-38.315308</ele>
        <time>2014-06-22T14:04:49Z</time>
      </trkpt>
      <trkpt lat="43.444" lon="6.53189">
        <ele>-35.431519</ele>
        <time>2014-06-22T14:05:10Z</time>
      </trkpt>
      <trkpt lat="43.44388" lon="6.53142">
        <ele>-29.663574</ele>
        <time>2014-06-22T14:06:05Z</time>
      </trkpt>
      <trkpt lat="43.44392" lon="6.53127">
        <ele>-27.260254</ele>
        <time>2014-06-22T14:06:29Z</time>
      </trkpt>
      <trkpt lat="43.4436" lon="6.53036">
        <ele>-23.89563</ele>
        <time>2014-06-22T14:06:59Z</time>
      </trkpt>
      <trkpt lat="43.44348" lon="6.52975">
        <ele>-20.531006</ele>
        <time>2014-06-22T14:07:34Z</time>
      </trkpt>
      <trkpt lat="43.44326" lon="6.52933">
        <ele>-18.127808</ele>
        <time>2014-06-22T14:08:09Z</time>
      </trkpt>
      <trkpt lat="43.44307" lon="6.52905">
        <ele>-15.724365</ele>
        <time>2014-06-22T14:08:41Z</time>
      </trkpt>
      <trkpt lat="43.443" lon="6.5285">
        <ele>-13.801758</ele>
        <time>2014-06-22T14:09:15Z</time>
      </trkpt>
      <trkpt lat="43.44288" lon="6.52828">
        <ele>-12.840454</ele>
        <time>2014-06-22T14:09:39Z</time>
      </trkpt>
      <trkpt lat="43.44279" lon="6.52803">
        <ele>-12.840454</ele>
        <time>2014-06-22T14:10:00Z</time>
      </trkpt>
      <trkpt lat="43.44278" lon="6.52795">
        <ele>-13.321045</ele>
        <time>2014-06-22T14:10:08Z</time>
      </trkpt>
      <trkpt lat="43.44275" lon="6.52768">
        <ele>-13.321045</ele>
        <time>2014-06-22T14:10:21Z</time>
      </trkpt>
      <trkpt lat="43.44272" lon="6.52742">
        <ele>-12.840454</ele>
        <time>2014-06-22T14:10:37Z</time>
      </trkpt>
      <trkpt lat="43.44269" lon="6.52736">
        <ele>-12.840454</ele>
        <time>2014-06-22T14:10:45Z</time>
      </trkpt>
      <trkpt lat="43.44266" lon="6.52723">
        <ele>-13.321045</ele>
        <time>2014-06-22T14:10:56Z</time>
      </trkpt>
      <trkpt lat="43.44267" lon="6.52722">
        <ele>-13.321045</ele>
        <time>2014-06-22T14:10:58Z</time>
      </trkpt>
      <trkpt lat="43.44267" lon="6.52714">
        <ele>-13.321045</ele>
        <time>2014-06-22T14:11:03Z</time>
      </trkpt>
      <trkpt lat="43.44269" lon="6.52707">
        <ele>-13.801758</ele>
        <time>2014-06-22T14:11:07Z</time>
      </trkpt>
      <trkpt lat="43.44272" lon="6.52688">
        <ele>-14.282471</ele>
        <time>2014-06-22T14:11:23Z</time>
      </trkpt>
      <trkpt lat="43.44273" lon="6.52659">
        <ele>-8.995239</ele>
        <time>2014-06-22T14:11:40Z</time>
      </trkpt>
      <trkpt lat="43.44272" lon="6.52649">
        <ele>-8.514648</ele>
        <time>2014-06-22T14:11:46Z</time>
      </trkpt>
      <trkpt lat="43.44272" lon="6.52644">
        <ele>-8.514648</ele>
        <time>2014-06-22T14:11:50Z</time>
      </trkpt>
      <trkpt lat="43.44276" lon="6.52621">
        <ele>-8.514648</ele>
        <time>2014-06-22T14:12:14Z</time>
      </trkpt>
      <trkpt lat="43.44278" lon="6.52595">
        <ele>-8.995239</ele>
        <time>2014-06-22T14:12:31Z</time>
      </trkpt>
      <trkpt lat="43.44279" lon="6.52581">
        <ele>-8.514648</ele>
        <time>2014-06-22T14:12:44Z</time>
      </trkpt>
      <trkpt lat="43.44279" lon="6.5255">
        <ele>-8.995239</ele>
        <time>2014-06-22T14:12:57Z</time>
      </trkpt>
      <trkpt lat="43.44279" lon="6.52525">
        <ele>-8.033936</ele>
        <time>2014-06-22T14:13:18Z</time>
      </trkpt>
      <trkpt lat="43.44278" lon="6.52496">
        <ele>-6.111206</ele>
        <time>2014-06-22T14:13:43Z</time>
      </trkpt>
      <trkpt lat="43.44278" lon="6.52478">
        <ele>-5.149902</ele>
        <time>2014-06-22T14:13:59Z</time>
      </trkpt>
      <trkpt lat="43.44293" lon="6.52447">
        <ele>-2.746704</ele>
        <time>2014-06-22T14:14:27Z</time>
      </trkpt>
      <trkpt lat="43.44311" lon="6.52432">
        <ele>-0.343384</ele>
        <time>2014-06-22T14:14:53Z</time>
      </trkpt>
      <trkpt lat="43.4433" lon="6.5244">
        <ele>2.540649</ele>
        <time>2014-06-22T14:15:15Z</time>
      </trkpt>
      <trkpt lat="43.44347" lon="6.52451">
        <ele>3.02124</ele>
        <time>2014-06-22T14:15:34Z</time>
      </trkpt>
      <trkpt lat="43.44374" lon="6.52453">
        <ele>4.463257</ele>
        <time>2014-06-22T14:16:03Z</time>
      </trkpt>
      <trkpt lat="43.44382" lon="6.52441">
        <ele>4.943848</ele>
        <time>2014-06-22T14:16:14Z</time>
      </trkpt>
      <trkpt lat="43.44409" lon="6.52417">
        <ele>6.866455</ele>
        <time>2014-06-22T14:16:46Z</time>
      </trkpt>
      <trkpt lat="43.4443" lon="6.52401">
        <ele>8.308594</ele>
        <time>2014-06-22T14:17:08Z</time>
      </trkpt>
      <trkpt lat="43.44454" lon="6.52396">
        <ele>9.269897</ele>
        <time>2014-06-22T14:17:35Z</time>
      </trkpt>
      <trkpt lat="43.44478" lon="6.52398">
        <ele>11.192505</ele>
        <time>2014-06-22T14:18:02Z</time>
      </trkpt>
      <trkpt lat="43.44491" lon="6.52394">
        <ele>11.673218</ele>
        <time>2014-06-22T14:18:13Z</time>
      </trkpt>
      <trkpt lat="43.44508" lon="6.52404">
        <ele>12.634399</ele>
        <time>2014-06-22T14:18:39Z</time>
      </trkpt>
      <trkpt lat="43.44512" lon="6.52409">
        <ele>12.634399</ele>
        <time>2014-06-22T14:18:45Z</time>
      </trkpt>
      <trkpt lat="43.44523" lon="6.52415">
        <ele>12.634399</ele>
        <time>2014-06-22T14:18:58Z</time>
      </trkpt>
      <trkpt lat="43.44539" lon="6.52425">
        <ele>13.115112</ele>
        <time>2014-06-22T14:19:21Z</time>
      </trkpt>
      <trkpt lat="43.44546" lon="6.52428">
        <ele>15.03772</ele>
        <time>2014-06-22T14:19:40Z</time>
      </trkpt>
      <trkpt lat="43.44558" lon="6.52435">
        <ele>16.479736</ele>
        <time>2014-06-22T14:19:49Z</time>
      </trkpt>
      <trkpt lat="43.44559" lon="6.52428">
        <ele>17.921753</ele>
        <time>2014-06-22T14:20:04Z</time>
      </trkpt>
      <trkpt lat="43.44555" lon="6.5242">
        <ele>18.402344</ele>
        <time>2014-06-22T14:20:31Z</time>
      </trkpt>
      <trkpt lat="43.44558" lon="6.52422">
        <ele>22.728271</ele>
        <time>2014-06-22T14:21:07Z</time>
      </trkpt>
      <trkpt lat="43.44553" lon="6.52422">
        <ele>32.341553</ele>
        <time>2014-06-22T14:24:40Z</time>
      </trkpt>
      <trkpt lat="43.44542" lon="6.52393">
        <ele>30.899536</ele>
        <time>2014-06-22T14:25:05Z</time>
      </trkpt>
      <trkpt lat="43.44534" lon="6.52373">
        <ele>32.341553</ele>
        <time>2014-06-22T14:25:18Z</time>
      </trkpt>
      <trkpt lat="43.4453" lon="6.5236">
        <ele>32.822266</ele>
        <time>2014-06-22T14:25:29Z</time>
      </trkpt>
      <trkpt lat="43.44531" lon="6.52353">
        <ele>32.341553</ele>
        <time>2014-06-22T14:25:35Z</time>
      </trkpt>
      <trkpt lat="43.44541" lon="6.52332">
        <ele>33.302856</ele>
        <time>2014-06-22T14:25:54Z</time>
      </trkpt>
      <trkpt lat="43.44549" lon="6.52312">
        <ele>38.590088</ele>
        <time>2014-06-22T14:26:08Z</time>
      </trkpt>
      <trkpt lat="43.44551" lon="6.52303">
        <ele>41.473999</ele>
        <time>2014-06-22T14:26:17Z</time>
      </trkpt>
      <trkpt lat="43.44561" lon="6.52275">
        <ele>49.164551</ele>
        <time>2014-06-22T14:26:41Z</time>
      </trkpt>
      <trkpt lat="43.44568" lon="6.52249">
        <ele>54.451782</ele>
        <time>2014-06-22T14:27:02Z</time>
      </trkpt>
      <trkpt lat="43.44567" lon="6.52222">
        <ele>58.297119</ele>
        <time>2014-06-22T14:27:23Z</time>
      </trkpt>
      <trkpt lat="43.44567" lon="6.5222">
        <ele>58.297119</ele>
        <time>2014-06-22T14:27:24Z</time>
      </trkpt>
      <trkpt lat="43.44566" lon="6.52217">
        <ele>58.297119</ele>
        <time>2014-06-22T14:27:26Z</time>
      </trkpt>
      <trkpt lat="43.4457" lon="6.52196">
        <ele>59.739136</ele>
        <time>2014-06-22T14:27:41Z</time>
      </trkpt>
      <trkpt lat="43.44571" lon="6.52193">
        <ele>59.739136</ele>
        <time>2014-06-22T14:27:42Z</time>
      </trkpt>
      <trkpt lat="43.4457" lon="6.52188">
        <ele>60.219727</ele>
        <time>2014-06-22T14:27:46Z</time>
      </trkpt>
      <trkpt lat="43.44573" lon="6.52183">
        <ele>60.700317</ele>
        <time>2014-06-22T14:27:49Z</time>
      </trkpt>
      <trkpt lat="43.44581" lon="6.5217">
        <ele>62.622925</ele>
        <time>2014-06-22T14:28:09Z</time>
      </trkpt>
      <trkpt lat="43.44606" lon="6.52156">
        <ele>66.948975</ele>
        <time>2014-06-22T14:28:39Z</time>
      </trkpt>
      <trkpt lat="43.44623" lon="6.52149">
        <ele>70.794189</ele>
        <time>2014-06-22T14:29:00Z</time>
      </trkpt>
      <trkpt lat="43.44628" lon="6.52143">
        <ele>72.716919</ele>
        <time>2014-06-22T14:29:10Z</time>
      </trkpt>
      <trkpt lat="43.44638" lon="6.52116">
        <ele>76.081421</ele>
        <time>2014-06-22T14:29:31Z</time>
      </trkpt>
      <trkpt lat="43.44649" lon="6.52085">
        <ele>76.081421</ele>
        <time>2014-06-22T14:29:57Z</time>
      </trkpt>
      <trkpt lat="43.44665" lon="6.52065">
        <ele>75.60083</ele>
        <time>2014-06-22T14:30:28Z</time>
      </trkpt>
      <trkpt lat="43.44666" lon="6.52062">
        <ele>72.716919</ele>
        <time>2014-06-22T14:31:05Z</time>
      </trkpt>
      <trkpt lat="43.44678" lon="6.52048">
        <ele>71.274902</ele>
        <time>2014-06-22T14:31:35Z</time>
      </trkpt>
      <trkpt lat="43.44683" lon="6.52045">
        <ele>71.755493</ele>
        <time>2014-06-22T14:31:39Z</time>
      </trkpt>
      <trkpt lat="43.44701" lon="6.52026">
        <ele>68.390869</ele>
        <time>2014-06-22T14:31:57Z</time>
      </trkpt>
      <trkpt lat="43.44711" lon="6.52011">
        <ele>66.948975</ele>
        <time>2014-06-22T14:32:12Z</time>
      </trkpt>
      <trkpt lat="43.44716" lon="6.51998">
        <ele>65.987671</ele>
        <time>2014-06-22T14:32:22Z</time>
      </trkpt>
      <trkpt lat="43.44713" lon="6.51976">
        <ele>65.50708</ele>
        <time>2014-06-22T14:32:39Z</time>
      </trkpt>
      <trkpt lat="43.44711" lon="6.51967">
        <ele>65.987671</ele>
        <time>2014-06-22T14:33:00Z</time>
      </trkpt>
      <trkpt lat="43.4471" lon="6.5196">
        <ele>64.065063</ele>
        <time>2014-06-22T14:33:28Z</time>
      </trkpt>
      <trkpt lat="43.44705" lon="6.51975">
        <ele>65.026367</ele>
        <time>2014-06-22T14:46:42Z</time>
      </trkpt>
      <trkpt lat="43.44708" lon="6.51969">
        <ele>67.429688</ele>
        <time>2014-06-22T14:47:15Z</time>
      </trkpt>
      <trkpt lat="43.44714" lon="6.51966">
        <ele>78.965454</ele>
        <time>2014-06-22T14:48:53Z</time>
      </trkpt>
      <trkpt lat="43.44719" lon="6.51973">
        <ele>81.368774</ele>
        <time>2014-06-22T14:49:21Z</time>
      </trkpt>
      <trkpt lat="43.44713" lon="6.51972">
        <ele>84.252686</ele>
        <time>2014-06-22T14:49:57Z</time>
      </trkpt>
      <trkpt lat="43.44709" lon="6.51971">
        <ele>89.059326</ele>
        <time>2014-06-22T14:50:58Z</time>
      </trkpt>
      <trkpt lat="43.44707" lon="6.51975">
        <ele>91.943237</ele>
        <time>2014-06-22T14:51:47Z</time>
      </trkpt>
      <trkpt lat="43.44704" lon="6.51979">
        <ele>91.943237</ele>
        <time>2014-06-22T14:52:23Z</time>
      </trkpt>
      <trkpt lat="43.44709" lon="6.5198">
        <ele>90.501343</ele>
        <time>2014-06-22T14:52:46Z</time>
      </trkpt>
      <trkpt lat="43.44712" lon="6.51967">
        <ele>81.849365</ele>
        <time>2014-06-22T14:53:14Z</time>
      </trkpt>
      <trkpt lat="43.44718" lon="6.51964">
        <ele>74.158813</ele>
        <time>2014-06-22T14:54:13Z</time>
      </trkpt>
      <trkpt lat="43.44726" lon="6.51952">
        <ele>72.716919</ele>
        <time>2014-06-22T14:54:28Z</time>
      </trkpt>
      <trkpt lat="43.44733" lon="6.51945">
        <ele>72.236206</ele>
        <time>2014-06-22T14:54:34Z</time>
      </trkpt>
      <trkpt lat="43.44739" lon="6.51932">
        <ele>70.794189</ele>
        <time>2014-06-22T14:54:45Z</time>
      </trkpt>
      <trkpt lat="43.44742" lon="6.51927">
        <ele>69.832886</ele>
        <time>2014-06-22T14:54:50Z</time>
      </trkpt>
      <trkpt lat="43.44748" lon="6.51914">
        <ele>67.910278</ele>
        <time>2014-06-22T14:55:04Z</time>
      </trkpt>
      <trkpt lat="43.44754" lon="6.51877">
        <ele>69.352295</ele>
        <time>2014-06-22T14:55:31Z</time>
      </trkpt>
      <trkpt lat="43.44754" lon="6.51876">
        <ele>69.832886</ele>
        <time>2014-06-22T14:55:32Z</time>
      </trkpt>
      <trkpt lat="43.44752" lon="6.51852">
        <ele>71.755493</ele>
        <time>2014-06-22T14:55:51Z</time>
      </trkpt>
      <trkpt lat="43.44752" lon="6.5184">
        <ele>70.794189</ele>
        <time>2014-06-22T14:56:03Z</time>
      </trkpt>
      <trkpt lat="43.44749" lon="6.51804">
        <ele>69.352295</ele>
        <time>2014-06-22T14:56:33Z</time>
      </trkpt>
      <trkpt lat="43.44745" lon="6.51779">
        <ele>69.832886</ele>
        <time>2014-06-22T14:56:53Z</time>
      </trkpt>
      <trkpt lat="43.44748" lon="6.51748">
        <ele>72.236206</ele>
        <time>2014-06-22T14:57:11Z</time>
      </trkpt>
      <trkpt lat="43.44754" lon="6.5173">
        <ele>73.678223</ele>
        <time>2014-06-22T14:57:24Z</time>
      </trkpt>
      <trkpt lat="43.44769" lon="6.51705">
        <ele>72.716919</ele>
        <time>2014-06-22T14:57:46Z</time>
      </trkpt>
      <trkpt lat="43.44776" lon="6.51674">
        <ele>72.716919</ele>
        <time>2014-06-22T14:58:09Z</time>
      </trkpt>
      <trkpt lat="43.44776" lon="6.51631">
        <ele>77.042847</ele>
        <time>2014-06-22T14:58:36Z</time>
      </trkpt>
      <trkpt lat="43.44769" lon="6.51596">
        <ele>82.810791</ele>
        <time>2014-06-22T14:59:05Z</time>
      </trkpt>
      <trkpt lat="43.44775" lon="6.51553">
        <ele>88.098022</ele>
        <time>2014-06-22T14:59:37Z</time>
      </trkpt>
      <trkpt lat="43.44778" lon="6.51522">
        <ele>91.462524</ele>
        <time>2014-06-22T14:59:57Z</time>
      </trkpt>
      <trkpt lat="43.44776" lon="6.51501">
        <ele>98.191895</ele>
        <time>2014-06-22T15:00:18Z</time>
      </trkpt>
      <trkpt lat="43.44783" lon="6.51465">
        <ele>104.44043</ele>
        <time>2014-06-22T15:00:45Z</time>
      </trkpt>
      <trkpt lat="43.44785" lon="6.51425">
        <ele>106.363037</ele>
        <time>2014-06-22T15:01:08Z</time>
      </trkpt>
      <trkpt lat="43.44791" lon="6.51394">
        <ele>106.363037</ele>
        <time>2014-06-22T15:01:34Z</time>
      </trkpt>
      <trkpt lat="43.44791" lon="6.51383">
        <ele>101.075684</ele>
        <time>2014-06-22T15:01:40Z</time>
      </trkpt>
      <trkpt lat="43.44796" lon="6.51352">
        <ele>86.656006</ele>
        <time>2014-06-22T15:02:03Z</time>
      </trkpt>
      <trkpt lat="43.44792" lon="6.51313">
        <ele>82.330078</ele>
        <time>2014-06-22T15:02:29Z</time>
      </trkpt>
      <trkpt lat="43.44785" lon="6.51279">
        <ele>80.888184</ele>
        <time>2014-06-22T15:02:50Z</time>
      </trkpt>
      <trkpt lat="43.44788" lon="6.5127">
        <ele>82.810791</ele>
        <time>2014-06-22T15:02:55Z</time>
      </trkpt>
      <trkpt lat="43.44795" lon="6.51256">
        <ele>82.810791</ele>
        <time>2014-06-22T15:03:07Z</time>
      </trkpt>
      <trkpt lat="43.44799" lon="6.5125">
        <ele>82.330078</ele>
        <time>2014-06-22T15:03:11Z</time>
      </trkpt>
      <trkpt lat="43.44807" lon="6.51226">
        <ele>80.888184</ele>
        <time>2014-06-22T15:03:29Z</time>
      </trkpt>
      <trkpt lat="43.44808" lon="6.51225">
        <ele>80.888184</ele>
        <time>2014-06-22T15:03:30Z</time>
      </trkpt>
      <trkpt lat="43.4481" lon="6.51217">
        <ele>81.368774</ele>
        <time>2014-06-22T15:03:36Z</time>
      </trkpt>
      <trkpt lat="43.4482" lon="6.51194">
        <ele>82.810791</ele>
        <time>2014-06-22T15:03:55Z</time>
      </trkpt>
      <trkpt lat="43.44823" lon="6.51188">
        <ele>83.291382</ele>
        <time>2014-06-22T15:04:00Z</time>
      </trkpt>
      <trkpt lat="43.44822" lon="6.51167">
        <ele>84.733398</ele>
        <time>2014-06-22T15:04:11Z</time>
      </trkpt>
      <trkpt lat="43.44801" lon="6.5114">
        <ele>92.904541</ele>
        <time>2014-06-22T15:04:39Z</time>
      </trkpt>
      <trkpt lat="43.44789" lon="6.51116">
        <ele>100.114502</ele>
        <time>2014-06-22T15:05:02Z</time>
      </trkpt>
      <trkpt lat="43.44781" lon="6.51086">
        <ele>108.285645</ele>
        <time>2014-06-22T15:05:25Z</time>
      </trkpt>
      <trkpt lat="43.4477" lon="6.51047">
        <ele>116.9375</ele>
        <time>2014-06-22T15:05:54Z</time>
      </trkpt>
      <trkpt lat="43.44766" lon="6.51016">
        <ele>115.014893</ele>
        <time>2014-06-22T15:06:15Z</time>
      </trkpt>
      <trkpt lat="43.44755" lon="6.50986">
        <ele>105.882446</ele>
        <time>2014-06-22T15:06:35Z</time>
      </trkpt>
      <trkpt lat="43.44754" lon="6.50956">
        <ele>98.672485</ele>
        <time>2014-06-22T15:06:56Z</time>
      </trkpt>
      <trkpt lat="43.44765" lon="6.50926">
        <ele>95.307739</ele>
        <time>2014-06-22T15:07:22Z</time>
      </trkpt>
      <trkpt lat="43.44777" lon="6.50889">
        <ele>94.827148</ele>
        <time>2014-06-22T15:07:51Z</time>
      </trkpt>
      <trkpt lat="43.44797" lon="6.50865">
        <ele>93.865845</ele>
        <time>2014-06-22T15:08:17Z</time>
      </trkpt>
      <trkpt lat="43.44814" lon="6.50832">
        <ele>91.943237</ele>
        <time>2014-06-22T15:08:48Z</time>
      </trkpt>
      <trkpt lat="43.44827" lon="6.50782">
        <ele>92.42395</ele>
        <time>2014-06-22T15:09:26Z</time>
      </trkpt>
      <trkpt lat="43.44824" lon="6.50747">
        <ele>94.827148</ele>
        <time>2014-06-22T15:09:50Z</time>
      </trkpt>
      <trkpt lat="43.44815" lon="6.5071">
        <ele>97.230469</ele>
        <time>2014-06-22T15:10:15Z</time>
      </trkpt>
      <trkpt lat="43.44801" lon="6.50682">
        <ele>99.153076</ele>
        <time>2014-06-22T15:10:37Z</time>
      </trkpt>
      <trkpt lat="43.44784" lon="6.50649">
        <ele>101.556396</ele>
        <time>2014-06-22T15:11:04Z</time>
      </trkpt>
      <trkpt lat="43.44762" lon="6.50627">
        <ele>102.998291</ele>
        <time>2014-06-22T15:11:29Z</time>
      </trkpt>
      <trkpt lat="43.44754" lon="6.50611">
        <ele>108.285645</ele>
        <time>2014-06-22T15:11:44Z</time>
      </trkpt>
      <trkpt lat="43.44744" lon="6.50598">
        <ele>115.495605</ele>
        <time>2014-06-22T15:12:01Z</time>
      </trkpt>
      <trkpt lat="43.44734" lon="6.50585">
        <ele>120.782837</ele>
        <time>2014-06-22T15:12:16Z</time>
      </trkpt>
      <trkpt lat="43.44722" lon="6.50565">
        <ele>124.147339</ele>
        <time>2014-06-22T15:12:31Z</time>
      </trkpt>
      <trkpt lat="43.44715" lon="6.50547">
        <ele>126.550659</ele>
        <time>2014-06-22T15:12:47Z</time>
      </trkpt>
      <trkpt lat="43.44693" lon="6.50518">
        <ele>124.628052</ele>
        <time>2014-06-22T15:13:10Z</time>
      </trkpt>
      <trkpt lat="43.44643" lon="6.50493">
        <ele>110.688843</ele>
        <time>2014-06-22T15:13:47Z</time>
      </trkpt>
      <trkpt lat="43.44614" lon="6.50475">
        <ele>109.727661</ele>
        <time>2014-06-22T15:14:14Z</time>
      </trkpt>
      <trkpt lat="43.4461" lon="6.50468">
        <ele>110.208252</ele>
        <time>2014-06-22T15:14:38Z</time>
      </trkpt>
      <trkpt lat="43.44599" lon="6.50453">
        <ele>108.285645</ele>
        <time>2014-06-22T15:14:54Z</time>
      </trkpt>
      <trkpt lat="43.44592" lon="6.50443">
        <ele>105.401733</ele>
        <time>2014-06-22T15:15:04Z</time>
      </trkpt>
      <trkpt lat="43.44585" lon="6.50409">
        <ele>100.114502</ele>
        <time>2014-06-22T15:15:26Z</time>
      </trkpt>
      <trkpt lat="43.44585" lon="6.50405">
        <ele>99.633789</ele>
        <time>2014-06-22T15:15:28Z</time>
      </trkpt>
      <trkpt lat="43.44588" lon="6.50396">
        <ele>99.633789</ele>
        <time>2014-06-22T15:15:43Z</time>
      </trkpt>
      <trkpt lat="43.44587" lon="6.50374">
        <ele>98.672485</ele>
        <time>2014-06-22T15:15:59Z</time>
      </trkpt>
      <trkpt lat="43.44586" lon="6.50357">
        <ele>96.749878</ele>
        <time>2014-06-22T15:16:17Z</time>
      </trkpt>
      <trkpt lat="43.4459" lon="6.50328">
        <ele>94.346558</ele>
        <time>2014-06-22T15:16:40Z</time>
      </trkpt>
      <trkpt lat="43.44605" lon="6.50287">
        <ele>91.943237</ele>
        <time>2014-06-22T15:17:12Z</time>
      </trkpt>
      <trkpt lat="43.44608" lon="6.5026">
        <ele>95.307739</ele>
        <time>2014-06-22T15:17:31Z</time>
      </trkpt>
      <trkpt lat="43.44608" lon="6.50249">
        <ele>98.672485</ele>
        <time>2014-06-22T15:17:41Z</time>
      </trkpt>
      <trkpt lat="43.44608" lon="6.50236">
        <ele>102.998291</ele>
        <time>2014-06-22T15:17:59Z</time>
      </trkpt>
      <trkpt lat="43.44607" lon="6.50237">
        <ele>103.479004</ele>
        <time>2014-06-22T15:18:06Z</time>
      </trkpt>
      <trkpt lat="43.44588" lon="6.5023">
        <ele>102.5177</ele>
        <time>2014-06-22T15:18:25Z</time>
      </trkpt>
      <trkpt lat="43.44576" lon="6.5022">
        <ele>100.595093</ele>
        <time>2014-06-22T15:18:38Z</time>
      </trkpt>
      <trkpt lat="43.44568" lon="6.50212">
        <ele>100.114502</ele>
        <time>2014-06-22T15:18:46Z</time>
      </trkpt>
      <trkpt lat="43.44553" lon="6.50204">
        <ele>97.711182</ele>
        <time>2014-06-22T15:19:00Z</time>
      </trkpt>
      <trkpt lat="43.44537" lon="6.50196">
        <ele>95.307739</ele>
        <time>2014-06-22T15:19:14Z</time>
      </trkpt>
      <trkpt lat="43.44519" lon="6.50196">
        <ele>92.42395</ele>
        <time>2014-06-22T15:19:31Z</time>
      </trkpt>
      <trkpt lat="43.44503" lon="6.50196">
        <ele>90.501343</ele>
        <time>2014-06-22T15:19:46Z</time>
      </trkpt>
      <trkpt lat="43.44492" lon="6.50197">
        <ele>92.42395</ele>
        <time>2014-06-22T15:20:00Z</time>
      </trkpt>
      <trkpt lat="43.44481" lon="6.50198">
        <ele>90.981934</ele>
        <time>2014-06-22T15:20:16Z</time>
      </trkpt>
      <trkpt lat="43.44473" lon="6.50201">
        <ele>89.539917</ele>
        <time>2014-06-22T15:20:31Z</time>
      </trkpt>
      <trkpt lat="43.44459" lon="6.50206">
        <ele>88.098022</ele>
        <time>2014-06-22T15:21:44Z</time>
      </trkpt>
      <trkpt lat="43.44446" lon="6.50205">
        <ele>89.539917</ele>
        <time>2014-06-22T15:22:00Z</time>
      </trkpt>
      <trkpt lat="43.44429" lon="6.50211">
        <ele>93.865845</ele>
        <time>2014-06-22T15:22:18Z</time>
      </trkpt>
      <trkpt lat="43.44422" lon="6.50211">
        <ele>95.307739</ele>
        <time>2014-06-22T15:22:25Z</time>
      </trkpt>
      <trkpt lat="43.44403" lon="6.50211">
        <ele>97.230469</ele>
        <time>2014-06-22T15:22:40Z</time>
      </trkpt>
      <trkpt lat="43.44381" lon="6.50205">
        <ele>93.385132</ele>
        <time>2014-06-22T15:22:59Z</time>
      </trkpt>
      <trkpt lat="43.44358" lon="6.50196">
        <ele>90.02063</ele>
        <time>2014-06-22T15:23:23Z</time>
      </trkpt>
      <trkpt lat="43.44319" lon="6.5019">
        <ele>86.656006</ele>
        <time>2014-06-22T15:23:54Z</time>
      </trkpt>
      <trkpt lat="43.44306" lon="6.50189">
        <ele>87.136597</ele>
        <time>2014-06-22T15:24:07Z</time>
      </trkpt>
      <trkpt lat="43.44286" lon="6.5019">
        <ele>86.656006</ele>
        <time>2014-06-22T15:24:23Z</time>
      </trkpt>
      <trkpt lat="43.44262" lon="6.50193">
        <ele>85.213989</ele>
        <time>2014-06-22T15:24:44Z</time>
      </trkpt>
      <trkpt lat="43.4424" lon="6.50199">
        <ele>84.733398</ele>
        <time>2014-06-22T15:25:04Z</time>
      </trkpt>
      <trkpt lat="43.44202" lon="6.50215">
        <ele>83.291382</ele>
        <time>2014-06-22T15:25:40Z</time>
      </trkpt>
      <trkpt lat="43.44175" lon="6.50227">
        <ele>79.926636</ele>
        <time>2014-06-22T15:26:07Z</time>
      </trkpt>
      <trkpt lat="43.4416" lon="6.50231">
        <ele>78.484741</ele>
        <time>2014-06-22T15:26:21Z</time>
      </trkpt>
      <trkpt lat="43.44148" lon="6.50234">
        <ele>77.042847</ele>
        <time>2014-06-22T15:26:32Z</time>
      </trkpt>
      <trkpt lat="43.4414" lon="6.50239">
        <ele>76.081421</ele>
        <time>2014-06-22T15:26:40Z</time>
      </trkpt>
      <trkpt lat="43.44137" lon="6.5024">
        <ele>75.60083</ele>
        <time>2014-06-22T15:26:43Z</time>
      </trkpt>
      <trkpt lat="43.44111" lon="6.50246">
        <ele>73.678223</ele>
        <time>2014-06-22T15:27:07Z</time>
      </trkpt>
      <trkpt lat="43.44104" lon="6.50247">
        <ele>72.236206</ele>
        <time>2014-06-22T15:27:14Z</time>
      </trkpt>
      <trkpt lat="43.44102" lon="6.50246">
        <ele>71.755493</ele>
        <time>2014-06-22T15:27:17Z</time>
      </trkpt>
      <trkpt lat="43.44098" lon="6.50248">
        <ele>71.274902</ele>
        <time>2014-06-22T15:27:21Z</time>
      </trkpt>
      <trkpt lat="43.44088" lon="6.5025">
        <ele>70.313477</ele>
        <time>2014-06-22T15:27:31Z</time>
      </trkpt>
      <trkpt lat="43.44088" lon="6.50255">
        <ele>69.832886</ele>
        <time>2014-06-22T15:27:35Z</time>
      </trkpt>
      <trkpt lat="43.44099" lon="6.50271">
        <ele>66.468262</ele>
        <time>2014-06-22T15:27:54Z</time>
      </trkpt>
      <trkpt lat="43.44103" lon="6.50284">
        <ele>64.065063</ele>
        <time>2014-06-22T15:28:09Z</time>
      </trkpt>
      <trkpt lat="43.44108" lon="6.50295">
        <ele>61.661743</ele>
        <time>2014-06-22T15:28:22Z</time>
      </trkpt>
      <trkpt lat="43.44113" lon="6.5031">
        <ele>59.258423</ele>
        <time>2014-06-22T15:28:43Z</time>
      </trkpt>
      <trkpt lat="43.44113" lon="6.50311">
        <ele>59.258423</ele>
        <time>2014-06-22T15:28:44Z</time>
      </trkpt>
      <trkpt lat="43.44113" lon="6.50328">
        <ele>57.816528</ele>
        <time>2014-06-22T15:28:59Z</time>
      </trkpt>
      <trkpt lat="43.44118" lon="6.50341">
        <ele>54.932373</ele>
        <time>2014-06-22T15:29:15Z</time>
      </trkpt>
      <trkpt lat="43.44124" lon="6.50354">
        <ele>54.451782</ele>
        <time>2014-06-22T15:29:31Z</time>
      </trkpt>
      <trkpt lat="43.44123" lon="6.50364">
        <ele>54.451782</ele>
        <time>2014-06-22T15:29:40Z</time>
      </trkpt>
      <trkpt lat="43.44115" lon="6.50381">
        <ele>53.490479</ele>
        <time>2014-06-22T15:29:53Z</time>
      </trkpt>
      <trkpt lat="43.44101" lon="6.5041">
        <ele>50.606567</ele>
        <time>2014-06-22T15:30:19Z</time>
      </trkpt>
      <trkpt lat="43.44099" lon="6.50412">
        <ele>50.125977</ele>
        <time>2014-06-22T15:30:22Z</time>
      </trkpt>
      <trkpt lat="43.44092" lon="6.50427">
        <ele>46.28064</ele>
        <time>2014-06-22T15:30:39Z</time>
      </trkpt>
      <trkpt lat="43.44091" lon="6.50436">
        <ele>45.319214</ele>
        <time>2014-06-22T15:30:43Z</time>
      </trkpt>
      <trkpt lat="43.44093" lon="6.50451">
        <ele>40.512817</ele>
        <time>2014-06-22T15:30:58Z</time>
      </trkpt>
      <trkpt lat="43.44092" lon="6.50453">
        <ele>40.032104</ele>
        <time>2014-06-22T15:31:17Z</time>
      </trkpt>
      <trkpt lat="43.44092" lon="6.50452">
        <ele>40.512817</ele>
        <time>2014-06-22T15:31:32Z</time>
      </trkpt>
      <trkpt lat="43.44092" lon="6.50452">
        <ele>40.512817</ele>
        <time>2014-06-22T15:31:43Z</time>
      </trkpt>
    </trkseg>
  </trk>
</gpx>